<?xml version="1.0" encoding="UTF-8" standalone="no" ?>
<gpx xmlns="http://www.topografix.com/GPX/1/1" xmlns:xsi="http://www.w3.org/2001/XMLSchema-instance" xsi:schemaLocation="http://www.topografix.com/GPX/1/1 http://www.topografix.com/GPX/1/1/gpx.xsd" version="1.1" creator="VisuGPX - https://www.visugpx.com">
  <metadata>
    <name>froyennes</name>
  </metadata>
  <trk>
    <name><![CDATA[froyennes]]></name>
    <trkseg>
      <trkpt lat="50.50335" lon="3.46236">
        <ele>20.505034</ele>
        <time>2020-06-22T10:08:53.967Z</time>
      </trkpt>
      <trkpt lat="50.50335" lon="3.46236">
        <ele>20.505034</ele>
        <time>2020-06-22T10:08:54.019Z</time>
      </trkpt>
      <trkpt lat="50.50345" lon="3.46155">
        <ele>20.505034</ele>
        <time>2020-06-22T10:09:02.407Z</time>
      </trkpt>
      <trkpt lat="50.50361" lon="3.46074">
        <ele>20.430073</ele>
        <time>2020-06-22T10:09:10.813Z</time>
      </trkpt>
      <trkpt lat="50.5041" lon="3.45851">
        <ele>19.730313</ele>
        <time>2020-06-22T10:09:34.900Z</time>
      </trkpt>
      <trkpt lat="50.50424" lon="3.45772">
        <ele>19.474961</ele>
        <time>2020-06-22T10:09:43.372Z</time>
      </trkpt>
      <trkpt lat="50.50433" lon="3.4572">
        <ele>19.302869</ele>
        <time>2020-06-22T10:09:49.003Z</time>
      </trkpt>
      <trkpt lat="50.50436" lon="3.45642">
        <ele>19.056693</ele>
        <time>2020-06-22T10:09:57.062Z</time>
      </trkpt>
      <trkpt lat="50.50437" lon="3.45631">
        <ele>19.021688</ele>
        <time>2020-06-22T10:09:58.038Z</time>
      </trkpt>
      <trkpt lat="50.5044" lon="3.45588">
        <ele>18.883273</ele>
        <time>2020-06-22T10:10:02.969Z</time>
      </trkpt>
      <trkpt lat="50.50441" lon="3.45573">
        <ele>18.834508</ele>
        <time>2020-06-22T10:10:04.352Z</time>
      </trkpt>
      <trkpt lat="50.50441" lon="3.45568">
        <ele>18.818215</ele>
        <time>2020-06-22T10:10:04.883Z</time>
      </trkpt>
      <trkpt lat="50.50443" lon="3.45552">
        <ele>18.762556</ele>
        <time>2020-06-22T10:10:06.509Z</time>
      </trkpt>
      <trkpt lat="50.50448" lon="3.45508">
        <ele>18.506614</ele>
        <time>2020-06-22T10:10:10.622Z</time>
      </trkpt>
      <trkpt lat="50.50447" lon="3.4549">
        <ele>18.398806</ele>
        <time>2020-06-22T10:10:12.344Z</time>
      </trkpt>
      <trkpt lat="50.50444" lon="3.45482">
        <ele>18.343782</ele>
        <time>2020-06-22T10:10:13.314Z</time>
      </trkpt>
      <trkpt lat="50.50448" lon="3.4547">
        <ele>18.265266</ele>
        <time>2020-06-22T10:10:14.492Z</time>
      </trkpt>
      <trkpt lat="50.50458" lon="3.45443">
        <ele>18.08223</ele>
        <time>2020-06-22T10:10:17.433Z</time>
      </trkpt>
      <trkpt lat="50.50468" lon="3.45372">
        <ele>17.659947</ele>
        <time>2020-06-22T10:10:24.258Z</time>
      </trkpt>
      <trkpt lat="50.50471" lon="3.45343">
        <ele>17.488313</ele>
        <time>2020-06-22T10:10:27.095Z</time>
      </trkpt>
      <trkpt lat="50.50473" lon="3.45332">
        <ele>17.42629</ele>
        <time>2020-06-22T10:10:28.060Z</time>
      </trkpt>
      <trkpt lat="50.50477" lon="3.45312">
        <ele>17.300933</ele>
        <time>2020-06-22T10:10:30.172Z</time>
      </trkpt>
      <trkpt lat="50.50513" lon="3.45201">
        <ele>16.749196</ele>
        <time>2020-06-22T10:10:42.073Z</time>
      </trkpt>
      <trkpt lat="50.50531" lon="3.45152">
        <ele>16.522226</ele>
        <time>2020-06-22T10:10:47.556Z</time>
      </trkpt>
      <trkpt lat="50.50539" lon="3.45133">
        <ele>16.429432</ele>
        <time>2020-06-22T10:10:49.728Z</time>
      </trkpt>
      <trkpt lat="50.50551" lon="3.45111">
        <ele>16.314982</ele>
        <time>2020-06-22T10:10:52.654Z</time>
      </trkpt>
      <trkpt lat="50.50599" lon="3.45026">
        <ele>15.962633</ele>
        <time>2020-06-22T10:11:04.627Z</time>
      </trkpt>
      <trkpt lat="50.50652" lon="3.44916">
        <ele>15.834823</ele>
        <time>2020-06-22T10:11:20.042Z</time>
      </trkpt>
      <trkpt lat="50.50661" lon="3.44894">
        <ele>15.810949</ele>
        <time>2020-06-22T10:11:22.761Z</time>
      </trkpt>
      <trkpt lat="50.50673" lon="3.44871">
        <ele>15.782971</ele>
        <time>2020-06-22T10:11:26.241Z</time>
      </trkpt>
      <trkpt lat="50.50707" lon="3.44823">
        <ele>15.7248</ele>
        <time>2020-06-22T10:11:34.013Z</time>
      </trkpt>
      <trkpt lat="50.51095" lon="3.44486">
        <ele>15.523336</ele>
        <time>2020-06-22T10:12:51.306Z</time>
      </trkpt>
      <trkpt lat="50.51116" lon="3.44468">
        <ele>15.538727</ele>
        <time>2020-06-22T10:12:55.879Z</time>
      </trkpt>
      <trkpt lat="50.51187" lon="3.44406">
        <ele>15.652357</ele>
        <time>2020-06-22T10:13:11.038Z</time>
      </trkpt>
      <trkpt lat="50.5119" lon="3.44403">
        <ele>15.669168</ele>
        <time>2020-06-22T10:13:11.990Z</time>
      </trkpt>
      <trkpt lat="50.51322" lon="3.4435">
        <ele>16.193288</ele>
        <time>2020-06-22T10:13:38.863Z</time>
      </trkpt>
      <trkpt lat="50.5134" lon="3.44349">
        <ele>16.265338</ele>
        <time>2020-06-22T10:13:42.697Z</time>
      </trkpt>
      <trkpt lat="50.51346" lon="3.4435">
        <ele>16.280855</ele>
        <time>2020-06-22T10:13:43.832Z</time>
      </trkpt>
      <trkpt lat="50.5139" lon="3.44363">
        <ele>16.36819</ele>
        <time>2020-06-22T10:13:52.577Z</time>
      </trkpt>
      <trkpt lat="50.51573" lon="3.44428">
        <ele>16.471433</ele>
        <time>2020-06-22T10:14:27.193Z</time>
      </trkpt>
      <trkpt lat="50.51599" lon="3.44445">
        <ele>16.394836</ele>
        <time>2020-06-22T10:14:31.733Z</time>
      </trkpt>
      <trkpt lat="50.51714" lon="3.44519">
        <ele>16.05743</ele>
        <time>2020-06-22T10:14:51.504Z</time>
      </trkpt>
      <trkpt lat="50.51727" lon="3.44527">
        <ele>16.021638</ele>
        <time>2020-06-22T10:14:53.593Z</time>
      </trkpt>
      <trkpt lat="50.51818" lon="3.44585">
        <ele>15.761041</ele>
        <time>2020-06-22T10:15:09.697Z</time>
      </trkpt>
      <trkpt lat="50.51845" lon="3.44602">
        <ele>15.685263</ele>
        <time>2020-06-22T10:15:14.886Z</time>
      </trkpt>
      <trkpt lat="50.5192" lon="3.44671">
        <ele>15.950889</ele>
        <time>2020-06-22T10:15:31.421Z</time>
      </trkpt>
      <trkpt lat="50.51925" lon="3.44675">
        <ele>15.973048</ele>
        <time>2020-06-22T10:15:32.635Z</time>
      </trkpt>
      <trkpt lat="50.51933" lon="3.44684">
        <ele>16.0121</ele>
        <time>2020-06-22T10:15:35.028Z</time>
      </trkpt>
      <trkpt lat="50.51953" lon="3.44702">
        <ele>16.098185</ele>
        <time>2020-06-22T10:15:39.282Z</time>
      </trkpt>
      <trkpt lat="50.51991" lon="3.44724">
        <ele>16.254691</ele>
        <time>2020-06-22T10:15:47.613Z</time>
      </trkpt>
      <trkpt lat="50.52029" lon="3.44725">
        <ele>16.381065</ele>
        <time>2020-06-22T10:15:55.315Z</time>
      </trkpt>
      <trkpt lat="50.52034" lon="3.44722">
        <ele>16.393202</ele>
        <time>2020-06-22T10:15:56.568Z</time>
      </trkpt>
      <trkpt lat="50.52072" lon="3.44707">
        <ele>16.4896</ele>
        <time>2020-06-22T10:16:04.492Z</time>
      </trkpt>
      <trkpt lat="50.52089" lon="3.44693">
        <ele>16.53809</ele>
        <time>2020-06-22T10:16:08.151Z</time>
      </trkpt>
      <trkpt lat="50.52092" lon="3.44691">
        <ele>16.544647</ele>
        <time>2020-06-22T10:16:08.653Z</time>
      </trkpt>
      <trkpt lat="50.52105" lon="3.44679">
        <ele>16.581735</ele>
        <time>2020-06-22T10:16:11.624Z</time>
      </trkpt>
      <trkpt lat="50.52116" lon="3.44669">
        <ele>16.614443</ele>
        <time>2020-06-22T10:16:14.062Z</time>
      </trkpt>
      <trkpt lat="50.52143" lon="3.44666">
        <ele>16.679883</ele>
        <time>2020-06-22T10:16:19.070Z</time>
      </trkpt>
      <trkpt lat="50.52154" lon="3.44675">
        <ele>16.711195</ele>
        <time>2020-06-22T10:16:21.307Z</time>
      </trkpt>
      <trkpt lat="50.52189" lon="3.44712">
        <ele>16.779826</ele>
        <time>2020-06-22T10:16:28.713Z</time>
      </trkpt>
      <trkpt lat="50.52222" lon="3.44745">
        <ele>16.741854</ele>
        <time>2020-06-22T10:16:35.416Z</time>
      </trkpt>
      <trkpt lat="50.52251" lon="3.448">
        <ele>16.6981</ele>
        <time>2020-06-22T10:16:43.230Z</time>
      </trkpt>
      <trkpt lat="50.52281" lon="3.44844">
        <ele>16.658326</ele>
        <time>2020-06-22T10:16:50.320Z</time>
      </trkpt>
      <trkpt lat="50.52311" lon="3.44887">
        <ele>16.619685</ele>
        <time>2020-06-22T10:16:57.329Z</time>
      </trkpt>
      <trkpt lat="50.52348" lon="3.44962">
        <ele>16.693021</ele>
        <time>2020-06-22T10:17:08.195Z</time>
      </trkpt>
      <trkpt lat="50.52354" lon="3.44967">
        <ele>16.702827</ele>
        <time>2020-06-22T10:17:09.494Z</time>
      </trkpt>
      <trkpt lat="50.52364" lon="3.44971">
        <ele>16.716399</ele>
        <time>2020-06-22T10:17:11.379Z</time>
      </trkpt>
      <trkpt lat="50.52397" lon="3.4497">
        <ele>16.760918</ele>
        <time>2020-06-22T10:17:17.666Z</time>
      </trkpt>
      <trkpt lat="50.52465" lon="3.44966">
        <ele>16.852155</ele>
        <time>2020-06-22T10:17:30.400Z</time>
      </trkpt>
      <trkpt lat="50.52496" lon="3.44968">
        <ele>16.899207</ele>
        <time>2020-06-22T10:17:36.292Z</time>
      </trkpt>
      <trkpt lat="50.52556" lon="3.44992">
        <ele>16.993153</ele>
        <time>2020-06-22T10:17:47.811Z</time>
      </trkpt>
      <trkpt lat="50.52569" lon="3.45007">
        <ele>17.018571</ele>
        <time>2020-06-22T10:17:50.681Z</time>
      </trkpt>
      <trkpt lat="50.52594" lon="3.45088">
        <ele>17.105545</ele>
        <time>2020-06-22T10:18:01.120Z</time>
      </trkpt>
      <trkpt lat="50.52608" lon="3.45115">
        <ele>17.151032</ele>
        <time>2020-06-22T10:18:04.999Z</time>
      </trkpt>
      <trkpt lat="50.52695" lon="3.45217">
        <ele>17.690389</ele>
        <time>2020-06-22T10:18:26.012Z</time>
      </trkpt>
      <trkpt lat="50.52698" lon="3.45225">
        <ele>17.722187</ele>
        <time>2020-06-22T10:18:27.413Z</time>
      </trkpt>
      <trkpt lat="50.52707" lon="3.45261">
        <ele>17.843382</ele>
        <time>2020-06-22T10:18:32.518Z</time>
      </trkpt>
      <trkpt lat="50.52719" lon="3.45338">
        <ele>18.142213</ele>
        <time>2020-06-22T10:18:43.539Z</time>
      </trkpt>
      <trkpt lat="50.52726" lon="3.45386">
        <ele>18.416506</ele>
        <time>2020-06-22T10:18:50.558Z</time>
      </trkpt>
      <trkpt lat="50.52741" lon="3.45438">
        <ele>18.734255</ele>
        <time>2020-06-22T10:18:58.861Z</time>
      </trkpt>
      <trkpt lat="50.52758" lon="3.45546">
        <ele>19.351322</ele>
        <time>2020-06-22T10:19:14.678Z</time>
      </trkpt>
      <trkpt lat="50.52769" lon="3.45601">
        <ele>19.654605</ele>
        <time>2020-06-22T10:19:22.513Z</time>
      </trkpt>
      <trkpt lat="50.52802" lon="3.4571">
        <ele>20.190873</ele>
        <time>2020-06-22T10:19:38.771Z</time>
      </trkpt>
      <trkpt lat="50.52899" lon="3.46191">
        <ele>22.663107</ele>
        <time>2020-06-22T10:20:46.248Z</time>
      </trkpt>
      <trkpt lat="50.52939" lon="3.46351">
        <ele>23.957303</ele>
        <time>2020-06-22T10:21:13.071Z</time>
      </trkpt>
      <trkpt lat="50.52951" lon="3.46484">
        <ele>25.071672</ele>
        <time>2020-06-22T10:21:34.232Z</time>
      </trkpt>
      <trkpt lat="50.53003" lon="3.46805">
        <ele>27.609594</ele>
        <time>2020-06-22T10:22:25.195Z</time>
      </trkpt>
      <trkpt lat="50.53008" lon="3.46817">
        <ele>27.699927</ele>
        <time>2020-06-22T10:22:27.242Z</time>
      </trkpt>
      <trkpt lat="50.53012" lon="3.46822">
        <ele>27.747762</ele>
        <time>2020-06-22T10:22:28.391Z</time>
      </trkpt>
      <trkpt lat="50.53018" lon="3.46828">
        <ele>27.825735</ele>
        <time>2020-06-22T10:22:30.173Z</time>
      </trkpt>
      <trkpt lat="50.53025" lon="3.46829">
        <ele>27.895141</ele>
        <time>2020-06-22T10:22:32.290Z</time>
      </trkpt>
      <trkpt lat="50.53175" lon="3.46773">
        <ele>27.95588</ele>
        <time>2020-06-22T10:23:02.275Z</time>
      </trkpt>
      <trkpt lat="50.53195" lon="3.46763">
        <ele>27.836387</ele>
        <time>2020-06-22T10:23:05.755Z</time>
      </trkpt>
      <trkpt lat="50.532" lon="3.46759">
        <ele>27.805091</ele>
        <time>2020-06-22T10:23:06.362Z</time>
      </trkpt>
      <trkpt lat="50.53267" lon="3.46704">
        <ele>27.23276</ele>
        <time>2020-06-22T10:23:16.551Z</time>
      </trkpt>
      <trkpt lat="50.53356" lon="3.46634">
        <ele>25.823936</ele>
        <time>2020-06-22T10:23:29.844Z</time>
      </trkpt>
      <trkpt lat="50.5341" lon="3.46593">
        <ele>24.978732</ele>
        <time>2020-06-22T10:23:38.621Z</time>
      </trkpt>
      <trkpt lat="50.53601" lon="3.4645">
        <ele>24.315489</ele>
        <time>2020-06-22T10:24:16.340Z</time>
      </trkpt>
      <trkpt lat="50.53712" lon="3.46368">
        <ele>23.120409</ele>
        <time>2020-06-22T10:24:34.253Z</time>
      </trkpt>
      <trkpt lat="50.53812" lon="3.46292">
        <ele>21.715546</ele>
        <time>2020-06-22T10:24:49.279Z</time>
      </trkpt>
      <trkpt lat="50.53844" lon="3.46263">
        <ele>21.220395</ele>
        <time>2020-06-22T10:24:54.323Z</time>
      </trkpt>
      <trkpt lat="50.53856" lon="3.46244">
        <ele>20.98386</ele>
        <time>2020-06-22T10:24:56.822Z</time>
      </trkpt>
      <trkpt lat="50.53878" lon="3.46181">
        <ele>20.382039</ele>
        <time>2020-06-22T10:25:03.384Z</time>
      </trkpt>
      <trkpt lat="50.5388" lon="3.46164">
        <ele>20.340825</ele>
        <time>2020-06-22T10:25:04.990Z</time>
      </trkpt>
      <trkpt lat="50.53949" lon="3.45679">
        <ele>19.381956</ele>
        <time>2020-06-22T10:25:58.488Z</time>
      </trkpt>
      <trkpt lat="50.54021" lon="3.45177">
        <ele>18.522435</ele>
        <time>2020-06-22T10:26:53.033Z</time>
      </trkpt>
      <trkpt lat="50.5404" lon="3.45071">
        <ele>18.340762</ele>
        <time>2020-06-22T10:27:04.623Z</time>
      </trkpt>
      <trkpt lat="50.54079" lon="3.44862">
        <ele>17.923582</ele>
        <time>2020-06-22T10:27:28.874Z</time>
      </trkpt>
      <trkpt lat="50.54083" lon="3.44841">
        <ele>17.881551</ele>
        <time>2020-06-22T10:27:30.939Z</time>
      </trkpt>
      <trkpt lat="50.54086" lon="3.44827">
        <ele>17.852594</ele>
        <time>2020-06-22T10:27:32.376Z</time>
      </trkpt>
      <trkpt lat="50.54086" lon="3.44823">
        <ele>17.84509</ele>
        <time>2020-06-22T10:27:32.962Z</time>
      </trkpt>
      <trkpt lat="50.5411" lon="3.4468">
        <ele>17.28134</ele>
        <time>2020-06-22T10:27:46.747Z</time>
      </trkpt>
      <trkpt lat="50.54123" lon="3.44691">
        <ele>17.187393</ele>
        <time>2020-06-22T10:27:49.101Z</time>
      </trkpt>
      <trkpt lat="50.54138" lon="3.44698">
        <ele>17.090367</ele>
        <time>2020-06-22T10:27:51.488Z</time>
      </trkpt>
      <trkpt lat="50.54141" lon="3.447">
        <ele>17.069332</ele>
        <time>2020-06-22T10:27:51.925Z</time>
      </trkpt>
      <trkpt lat="50.5416" lon="3.44707">
        <ele>16.944251</ele>
        <time>2020-06-22T10:27:55.357Z</time>
      </trkpt>
      <trkpt lat="50.5417" lon="3.44711">
        <ele>16.881245</ele>
        <time>2020-06-22T10:27:56.978Z</time>
      </trkpt>
      <trkpt lat="50.54179" lon="3.44715">
        <ele>16.820807</ele>
        <time>2020-06-22T10:27:58.446Z</time>
      </trkpt>
      <trkpt lat="50.54192" lon="3.4472">
        <ele>16.735231</ele>
        <time>2020-06-22T10:28:00.750Z</time>
      </trkpt>
      <trkpt lat="50.54222" lon="3.44731">
        <ele>16.742712</ele>
        <time>2020-06-22T10:28:05.811Z</time>
      </trkpt>
      <trkpt lat="50.54249" lon="3.44741">
        <ele>16.837113</ele>
        <time>2020-06-22T10:28:10.293Z</time>
      </trkpt>
      <trkpt lat="50.54262" lon="3.44741">
        <ele>16.881585</ele>
        <time>2020-06-22T10:28:12.487Z</time>
      </trkpt>
      <trkpt lat="50.5428" lon="3.44728">
        <ele>16.950419</ele>
        <time>2020-06-22T10:28:15.672Z</time>
      </trkpt>
      <trkpt lat="50.54288" lon="3.44721">
        <ele>16.981671</ele>
        <time>2020-06-22T10:28:17.596Z</time>
      </trkpt>
      <trkpt lat="50.54333" lon="3.44658">
        <ele>17.186324</ele>
        <time>2020-06-22T10:28:30.712Z</time>
      </trkpt>
      <trkpt lat="50.54389" lon="3.44586">
        <ele>17.576028</ele>
        <time>2020-06-22T10:28:47.743Z</time>
      </trkpt>
      <trkpt lat="50.54403" lon="3.4458">
        <ele>17.669178</ele>
        <time>2020-06-22T10:28:51.140Z</time>
      </trkpt>
      <trkpt lat="50.54414" lon="3.4458">
        <ele>17.740985</ele>
        <time>2020-06-22T10:28:53.447Z</time>
      </trkpt>
      <trkpt lat="50.54423" lon="3.4458">
        <ele>17.799546</ele>
        <time>2020-06-22T10:28:55.279Z</time>
      </trkpt>
      <trkpt lat="50.54433" lon="3.44583">
        <ele>17.866676</ele>
        <time>2020-06-22T10:28:57.440Z</time>
      </trkpt>
      <trkpt lat="50.54444" lon="3.44586">
        <ele>17.947488</ele>
        <time>2020-06-22T10:29:00.012Z</time>
      </trkpt>
      <trkpt lat="50.54443" lon="3.44602">
        <ele>18.015556</ele>
        <time>2020-06-22T10:29:02.738Z</time>
      </trkpt>
      <trkpt lat="50.54438" lon="3.44687">
        <ele>18.373141</ele>
        <time>2020-06-22T10:29:16.844Z</time>
      </trkpt>
      <trkpt lat="50.54433" lon="3.44779">
        <ele>18.532497</ele>
        <time>2020-06-22T10:29:31.625Z</time>
      </trkpt>
      <trkpt lat="50.54443" lon="3.44924">
        <ele>18.643887</ele>
        <time>2020-06-22T10:29:53.746Z</time>
      </trkpt>
      <trkpt lat="50.54452" lon="3.44978">
        <ele>18.685808</ele>
        <time>2020-06-22T10:30:02.328Z</time>
      </trkpt>
      <trkpt lat="50.54568" lon="3.45465">
        <ele>20.904199</ele>
        <time>2020-06-22T10:31:33.794Z</time>
      </trkpt>
      <trkpt lat="50.54574" lon="3.45481">
        <ele>20.992246</ele>
        <time>2020-06-22T10:31:37.246Z</time>
      </trkpt>
      <trkpt lat="50.5458" lon="3.45499">
        <ele>21.094628</ele>
        <time>2020-06-22T10:31:41.175Z</time>
      </trkpt>
      <trkpt lat="50.54669" lon="3.45863">
        <ele>22.942162</ele>
        <time>2020-06-22T10:32:51.344Z</time>
      </trkpt>
      <trkpt lat="50.54755" lon="3.46215">
        <ele>23.32293</ele>
        <time>2020-06-22T10:33:52.245Z</time>
      </trkpt>
      <trkpt lat="50.54762" lon="3.4624">
        <ele>23.301737</ele>
        <time>2020-06-22T10:33:55.985Z</time>
      </trkpt>
      <trkpt lat="50.54767" lon="3.46264">
        <ele>23.281602</ele>
        <time>2020-06-22T10:33:59.893Z</time>
      </trkpt>
      <trkpt lat="50.54814" lon="3.46462">
        <ele>22.794135</ele>
        <time>2020-06-22T10:34:28.401Z</time>
      </trkpt>
      <trkpt lat="50.5482" lon="3.46483">
        <ele>22.730121</ele>
        <time>2020-06-22T10:34:31.664Z</time>
      </trkpt>
      <trkpt lat="50.54832" lon="3.46526">
        <ele>22.597313</ele>
        <time>2020-06-22T10:34:38.624Z</time>
      </trkpt>
      <trkpt lat="50.5492" lon="3.46884">
        <ele>23.080037</ele>
        <time>2020-06-22T10:35:41.590Z</time>
      </trkpt>
      <trkpt lat="50.54994" lon="3.47188">
        <ele>24.021371</ele>
        <time>2020-06-22T10:36:36.976Z</time>
      </trkpt>
      <trkpt lat="50.55009" lon="3.47249">
        <ele>24.190795</ele>
        <time>2020-06-22T10:36:47.607Z</time>
      </trkpt>
      <trkpt lat="50.55022" lon="3.47297">
        <ele>24.325197</ele>
        <time>2020-06-22T10:36:56.061Z</time>
      </trkpt>
      <trkpt lat="50.55199" lon="3.4802">
        <ele>26.636421</ele>
        <time>2020-06-22T10:39:06.497Z</time>
      </trkpt>
      <trkpt lat="50.55201" lon="3.48028">
        <ele>26.668457</ele>
        <time>2020-06-22T10:39:08.056Z</time>
      </trkpt>
      <trkpt lat="50.55205" lon="3.4802">
        <ele>26.705863</ele>
        <time>2020-06-22T10:39:09.315Z</time>
      </trkpt>
      <trkpt lat="50.5521" lon="3.48008">
        <ele>26.760484</ele>
        <time>2020-06-22T10:39:11.152Z</time>
      </trkpt>
      <trkpt lat="50.55261" lon="3.47984">
        <ele>27.08705</ele>
        <time>2020-06-22T10:39:22.278Z</time>
      </trkpt>
      <trkpt lat="50.55426" lon="3.47881">
        <ele>28.769472</ele>
        <time>2020-06-22T10:40:01.644Z</time>
      </trkpt>
      <trkpt lat="50.5553" lon="3.47818">
        <ele>30.272025</ele>
        <time>2020-06-22T10:40:29.052Z</time>
      </trkpt>
      <trkpt lat="50.55556" lon="3.47802">
        <ele>30.668311</ele>
        <time>2020-06-22T10:40:36.200Z</time>
      </trkpt>
      <trkpt lat="50.55584" lon="3.47785">
        <ele>31.113938</ele>
        <time>2020-06-22T10:40:44.128Z</time>
      </trkpt>
      <trkpt lat="50.55636" lon="3.47763">
        <ele>31.738167</ele>
        <time>2020-06-22T10:40:57.734Z</time>
      </trkpt>
      <trkpt lat="50.55658" lon="3.47761">
        <ele>31.890701</ele>
        <time>2020-06-22T10:41:03.258Z</time>
      </trkpt>
      <trkpt lat="50.55681" lon="3.4776">
        <ele>32.051358</ele>
        <time>2020-06-22T10:41:08.372Z</time>
      </trkpt>
      <trkpt lat="50.55701" lon="3.47748">
        <ele>32.204095</ele>
        <time>2020-06-22T10:41:12.932Z</time>
      </trkpt>
      <trkpt lat="50.55728" lon="3.47699">
        <ele>32.492764</ele>
        <time>2020-06-22T10:41:20.868Z</time>
      </trkpt>
      <trkpt lat="50.55744" lon="3.47681">
        <ele>32.629778</ele>
        <time>2020-06-22T10:41:24.493Z</time>
      </trkpt>
      <trkpt lat="50.55747" lon="3.47679">
        <ele>32.650273</ele>
        <time>2020-06-22T10:41:25.295Z</time>
      </trkpt>
      <trkpt lat="50.55752" lon="3.47676">
        <ele>32.692954</ele>
        <time>2020-06-22T10:41:26.336Z</time>
      </trkpt>
      <trkpt lat="50.55759" lon="3.47674">
        <ele>32.739931</ele>
        <time>2020-06-22T10:41:27.528Z</time>
      </trkpt>
      <trkpt lat="50.55776" lon="3.47674">
        <ele>32.857056</ele>
        <time>2020-06-22T10:41:30.671Z</time>
      </trkpt>
      <trkpt lat="50.55831" lon="3.47675">
        <ele>32.937423</ele>
        <time>2020-06-22T10:41:40.552Z</time>
      </trkpt>
      <trkpt lat="50.55848" lon="3.47676">
        <ele>32.962926</ele>
        <time>2020-06-22T10:41:43.499Z</time>
      </trkpt>
      <trkpt lat="50.55876" lon="3.47695">
        <ele>33.006861</ele>
        <time>2020-06-22T10:41:48.738Z</time>
      </trkpt>
      <trkpt lat="50.55915" lon="3.47765">
        <ele>33.093075</ele>
        <time>2020-06-22T10:41:59.051Z</time>
      </trkpt>
      <trkpt lat="50.56024" lon="3.47769">
        <ele>33.903422</ele>
        <time>2020-06-22T10:42:23.111Z</time>
      </trkpt>
      <trkpt lat="50.56079" lon="3.47789">
        <ele>34.386756</ele>
        <time>2020-06-22T10:42:35.830Z</time>
      </trkpt>
      <trkpt lat="50.56092" lon="3.47804">
        <ele>34.518638</ele>
        <time>2020-06-22T10:42:39.647Z</time>
      </trkpt>
      <trkpt lat="50.56104" lon="3.47783">
        <ele>34.670891</ele>
        <time>2020-06-22T10:42:43.478Z</time>
      </trkpt>
      <trkpt lat="50.56138" lon="3.47691">
        <ele>35.186243</ele>
        <time>2020-06-22T10:42:58.572Z</time>
      </trkpt>
      <trkpt lat="50.56142" lon="3.47684">
        <ele>35.231693</ele>
        <time>2020-06-22T10:42:59.803Z</time>
      </trkpt>
      <trkpt lat="50.5615" lon="3.4768">
        <ele>35.296964</ele>
        <time>2020-06-22T10:43:01.867Z</time>
      </trkpt>
      <trkpt lat="50.56158" lon="3.47679">
        <ele>35.351992</ele>
        <time>2020-06-22T10:43:03.539Z</time>
      </trkpt>
      <trkpt lat="50.56187" lon="3.47692">
        <ele>35.582687</ele>
        <time>2020-06-22T10:43:09.970Z</time>
      </trkpt>
      <trkpt lat="50.56193" lon="3.47696">
        <ele>35.637539</ele>
        <time>2020-06-22T10:43:11.581Z</time>
      </trkpt>
      <trkpt lat="50.5623" lon="3.47745">
        <ele>36.001155</ele>
        <time>2020-06-22T10:43:20.976Z</time>
      </trkpt>
      <trkpt lat="50.56236" lon="3.47754">
        <ele>36.062961</ele>
        <time>2020-06-22T10:43:22.778Z</time>
      </trkpt>
      <trkpt lat="50.5624" lon="3.47748">
        <ele>36.094104</ele>
        <time>2020-06-22T10:43:23.835Z</time>
      </trkpt>
      <trkpt lat="50.56298" lon="3.47689">
        <ele>36.523428</ele>
        <time>2020-06-22T10:43:37.905Z</time>
      </trkpt>
      <trkpt lat="50.56326" lon="3.47642">
        <ele>36.774419</ele>
        <time>2020-06-22T10:43:46.434Z</time>
      </trkpt>
      <trkpt lat="50.5639" lon="3.47615">
        <ele>37.213246</ele>
        <time>2020-06-22T10:44:00.457Z</time>
      </trkpt>
      <trkpt lat="50.56432" lon="3.47581">
        <ele>37.731035</ele>
        <time>2020-06-22T10:44:10.563Z</time>
      </trkpt>
      <trkpt lat="50.56483" lon="3.4754">
        <ele>38.36049</ele>
        <time>2020-06-22T10:44:23.704Z</time>
      </trkpt>
      <trkpt lat="50.56562" lon="3.47477">
        <ele>39.405993</ele>
        <time>2020-06-22T10:44:45.122Z</time>
      </trkpt>
      <trkpt lat="50.56576" lon="3.47466">
        <ele>39.656348</ele>
        <time>2020-06-22T10:44:49.751Z</time>
      </trkpt>
      <trkpt lat="50.56619" lon="3.47432">
        <ele>40.382188</ele>
        <time>2020-06-22T10:45:01.664Z</time>
      </trkpt>
      <trkpt lat="50.56634" lon="3.47422">
        <ele>40.642424</ele>
        <time>2020-06-22T10:45:05.856Z</time>
      </trkpt>
      <trkpt lat="50.56641" lon="3.47421">
        <ele>40.737092</ele>
        <time>2020-06-22T10:45:07.564Z</time>
      </trkpt>
      <trkpt lat="50.56648" lon="3.47418">
        <ele>40.847674</ele>
        <time>2020-06-22T10:45:09.454Z</time>
      </trkpt>
      <trkpt lat="50.56697" lon="3.47412">
        <ele>41.597294</ele>
        <time>2020-06-22T10:45:21.180Z</time>
      </trkpt>
      <trkpt lat="50.56701" lon="3.47411">
        <ele>41.664816</ele>
        <time>2020-06-22T10:45:22.499Z</time>
      </trkpt>
      <trkpt lat="50.56705" lon="3.47409">
        <ele>41.735316</ele>
        <time>2020-06-22T10:45:23.668Z</time>
      </trkpt>
      <trkpt lat="50.56717" lon="3.47403">
        <ele>41.913869</ele>
        <time>2020-06-22T10:45:26.915Z</time>
      </trkpt>
      <trkpt lat="50.56774" lon="3.47365">
        <ele>42.774845</ele>
        <time>2020-06-22T10:45:42.395Z</time>
      </trkpt>
      <trkpt lat="50.56807" lon="3.47489">
        <ele>43.957299</ele>
        <time>2020-06-22T10:46:03.435Z</time>
      </trkpt>
      <trkpt lat="50.56812" lon="3.47507">
        <ele>44.128669</ele>
        <time>2020-06-22T10:46:06.194Z</time>
      </trkpt>
      <trkpt lat="50.56815" lon="3.47518">
        <ele>44.240606</ele>
        <time>2020-06-22T10:46:07.885Z</time>
      </trkpt>
      <trkpt lat="50.5682" lon="3.47528">
        <ele>44.35258</ele>
        <time>2020-06-22T10:46:10.089Z</time>
      </trkpt>
      <trkpt lat="50.56838" lon="3.47544">
        <ele>44.547167</ele>
        <time>2020-06-22T10:46:14.701Z</time>
      </trkpt>
      <trkpt lat="50.56882" lon="3.47565">
        <ele>44.976999</ele>
        <time>2020-06-22T10:46:25.127Z</time>
      </trkpt>
      <trkpt lat="50.569" lon="3.47571">
        <ele>45.150654</ele>
        <time>2020-06-22T10:46:29.553Z</time>
      </trkpt>
      <trkpt lat="50.56943" lon="3.476">
        <ele>45.586689</ele>
        <time>2020-06-22T10:46:39.905Z</time>
      </trkpt>
      <trkpt lat="50.56963" lon="3.47614">
        <ele>45.791192</ele>
        <time>2020-06-22T10:46:45.010Z</time>
      </trkpt>
      <trkpt lat="50.57008" lon="3.47669">
        <ele>46.123645</ele>
        <time>2020-06-22T10:46:56.637Z</time>
      </trkpt>
      <trkpt lat="50.57079" lon="3.47757">
        <ele>46.372181</ele>
        <time>2020-06-22T10:47:13.687Z</time>
      </trkpt>
      <trkpt lat="50.57106" lon="3.47799">
        <ele>46.4781</ele>
        <time>2020-06-22T10:47:20.542Z</time>
      </trkpt>
      <trkpt lat="50.57133" lon="3.47873">
        <ele>46.690752</ele>
        <time>2020-06-22T10:47:30.087Z</time>
      </trkpt>
      <trkpt lat="50.57171" lon="3.48065">
        <ele>47.278191</ele>
        <time>2020-06-22T10:47:55.866Z</time>
      </trkpt>
      <trkpt lat="50.57175" lon="3.4809">
        <ele>47.352355</ele>
        <time>2020-06-22T10:47:59.103Z</time>
      </trkpt>
      <trkpt lat="50.57179" lon="3.48099">
        <ele>47.417594</ele>
        <time>2020-06-22T10:48:01.103Z</time>
      </trkpt>
      <trkpt lat="50.57191" lon="3.48156">
        <ele>47.844449</ele>
        <time>2020-06-22T10:48:09.802Z</time>
      </trkpt>
      <trkpt lat="50.57235" lon="3.48362">
        <ele>49.363106</ele>
        <time>2020-06-22T10:48:43.110Z</time>
      </trkpt>
      <trkpt lat="50.5724" lon="3.48391">
        <ele>49.431716</ele>
        <time>2020-06-22T10:48:47.345Z</time>
      </trkpt>
      <trkpt lat="50.57246" lon="3.48417">
        <ele>49.494229</ele>
        <time>2020-06-22T10:48:50.911Z</time>
      </trkpt>
      <trkpt lat="50.57252" lon="3.48448">
        <ele>49.56873</ele>
        <time>2020-06-22T10:48:55.265Z</time>
      </trkpt>
      <trkpt lat="50.57263" lon="3.48501">
        <ele>49.696916</ele>
        <time>2020-06-22T10:49:04.553Z</time>
      </trkpt>
      <trkpt lat="50.57284" lon="3.48598">
        <ele>49.929217</ele>
        <time>2020-06-22T10:49:16.264Z</time>
      </trkpt>
      <trkpt lat="50.57308" lon="3.48672">
        <ele>50.114574</ele>
        <time>2020-06-22T10:49:25.104Z</time>
      </trkpt>
      <trkpt lat="50.57351" lon="3.48791">
        <ele>50.412296</ele>
        <time>2020-06-22T10:49:40.481Z</time>
      </trkpt>
      <trkpt lat="50.57355" lon="3.4881">
        <ele>50.455639</ele>
        <time>2020-06-22T10:49:43.049Z</time>
      </trkpt>
      <trkpt lat="50.57356" lon="3.48827">
        <ele>50.493235</ele>
        <time>2020-06-22T10:49:45.307Z</time>
      </trkpt>
      <trkpt lat="50.57355" lon="3.4881">
        <ele>50.530832</ele>
        <time>2020-06-22T10:49:47.656Z</time>
      </trkpt>
      <trkpt lat="50.57338" lon="3.48512">
        <ele>53.207215</ele>
        <time>2020-06-22T10:50:35.554Z</time>
      </trkpt>
      <trkpt lat="50.57343" lon="3.48486">
        <ele>53.494349</ele>
        <time>2020-06-22T10:50:40.502Z</time>
      </trkpt>
      <trkpt lat="50.57368" lon="3.48467">
        <ele>54.110978</ele>
        <time>2020-06-22T10:50:48.442Z</time>
      </trkpt>
      <trkpt lat="50.57614" lon="3.48354">
        <ele>59.622909</ele>
        <time>2020-06-22T10:52:01.762Z</time>
      </trkpt>
      <trkpt lat="50.57828" lon="3.48274">
        <ele>63.426751</ele>
        <time>2020-06-22T10:53:00.577Z</time>
      </trkpt>
      <trkpt lat="50.57835" lon="3.48271">
        <ele>63.536968</ele>
        <time>2020-06-22T10:53:02.589Z</time>
      </trkpt>
      <trkpt lat="50.57854" lon="3.48264">
        <ele>63.826033</ele>
        <time>2020-06-22T10:53:06.406Z</time>
      </trkpt>
      <trkpt lat="50.57903" lon="3.48269">
        <ele>63.725656</ele>
        <time>2020-06-22T10:53:16.329Z</time>
      </trkpt>
      <trkpt lat="50.57955" lon="3.48264">
        <ele>63.458501</ele>
        <time>2020-06-22T10:53:25.160Z</time>
      </trkpt>
      <trkpt lat="50.58057" lon="3.48288">
        <ele>62.66121</ele>
        <time>2020-06-22T10:53:39.745Z</time>
      </trkpt>
      <trkpt lat="50.58217" lon="3.48384">
        <ele>59.141868</ele>
        <time>2020-06-22T10:54:01.988Z</time>
      </trkpt>
      <trkpt lat="50.5826" lon="3.484">
        <ele>58.148346</ele>
        <time>2020-06-22T10:54:07.605Z</time>
      </trkpt>
      <trkpt lat="50.5853" lon="3.48404">
        <ele>52.498187</ele>
        <time>2020-06-22T10:54:42.658Z</time>
      </trkpt>
      <trkpt lat="50.58543" lon="3.4841">
        <ele>52.24672</ele>
        <time>2020-06-22T10:54:44.474Z</time>
      </trkpt>
      <trkpt lat="50.5859" lon="3.48481">
        <ele>51.532321</ele>
        <time>2020-06-22T10:54:53.996Z</time>
      </trkpt>
      <trkpt lat="50.58625" lon="3.48547">
        <ele>51.191223</ele>
        <time>2020-06-22T10:55:02.550Z</time>
      </trkpt>
      <trkpt lat="50.58634" lon="3.48585">
        <ele>51.028163</ele>
        <time>2020-06-22T10:55:06.852Z</time>
      </trkpt>
      <trkpt lat="50.58649" lon="3.48728">
        <ele>50.457603</ele>
        <time>2020-06-22T10:55:22.391Z</time>
      </trkpt>
      <trkpt lat="50.58665" lon="3.48769">
        <ele>50.268173</ele>
        <time>2020-06-22T10:55:27.496Z</time>
      </trkpt>
      <trkpt lat="50.58682" lon="3.48786">
        <ele>50.145664</ele>
        <time>2020-06-22T10:55:30.747Z</time>
      </trkpt>
      <trkpt lat="50.5871" lon="3.48796">
        <ele>49.970667</ele>
        <time>2020-06-22T10:55:35.137Z</time>
      </trkpt>
      <trkpt lat="50.58803" lon="3.48807">
        <ele>49.219331</ele>
        <time>2020-06-22T10:55:48.911Z</time>
      </trkpt>
      <trkpt lat="50.58813" lon="3.48812">
        <ele>49.078403</ele>
        <time>2020-06-22T10:55:50.445Z</time>
      </trkpt>
      <trkpt lat="50.58835" lon="3.48839">
        <ele>48.721918</ele>
        <time>2020-06-22T10:55:54.387Z</time>
      </trkpt>
      <trkpt lat="50.58847" lon="3.48855">
        <ele>48.519881</ele>
        <time>2020-06-22T10:55:56.509Z</time>
      </trkpt>
      <trkpt lat="50.58859" lon="3.48834">
        <ele>48.288668</ele>
        <time>2020-06-22T10:56:00.159Z</time>
      </trkpt>
      <trkpt lat="50.58869" lon="3.48814">
        <ele>48.090252</ele>
        <time>2020-06-22T10:56:03.178Z</time>
      </trkpt>
      <trkpt lat="50.58876" lon="3.488">
        <ele>47.93688</ele>
        <time>2020-06-22T10:56:05.586Z</time>
      </trkpt>
      <trkpt lat="50.58898" lon="3.48765">
        <ele>47.537875</ele>
        <time>2020-06-22T10:56:11.823Z</time>
      </trkpt>
      <trkpt lat="50.5893" lon="3.4871">
        <ele>46.947556</ele>
        <time>2020-06-22T10:56:21.262Z</time>
      </trkpt>
      <trkpt lat="50.58945" lon="3.48719">
        <ele>46.750912</ele>
        <time>2020-06-22T10:56:24.432Z</time>
      </trkpt>
      <trkpt lat="50.58963" lon="3.48724">
        <ele>46.523488</ele>
        <time>2020-06-22T10:56:28.156Z</time>
      </trkpt>
      <trkpt lat="50.5898" lon="3.48729">
        <ele>46.312904</ele>
        <time>2020-06-22T10:56:31.679Z</time>
      </trkpt>
      <trkpt lat="50.59014" lon="3.48709">
        <ele>45.869974</ele>
        <time>2020-06-22T10:56:39.014Z</time>
      </trkpt>
      <trkpt lat="50.59022" lon="3.48704">
        <ele>45.777607</ele>
        <time>2020-06-22T10:56:40.527Z</time>
      </trkpt>
      <trkpt lat="50.59026" lon="3.48698">
        <ele>45.709272</ele>
        <time>2020-06-22T10:56:41.687Z</time>
      </trkpt>
      <trkpt lat="50.59035" lon="3.48686">
        <ele>45.56641</ele>
        <time>2020-06-22T10:56:44.087Z</time>
      </trkpt>
      <trkpt lat="50.59039" lon="3.48677">
        <ele>45.474304</ele>
        <time>2020-06-22T10:56:45.723Z</time>
      </trkpt>
      <trkpt lat="50.59042" lon="3.48665">
        <ele>45.380984</ele>
        <time>2020-06-22T10:56:47.220Z</time>
      </trkpt>
      <trkpt lat="50.59042" lon="3.48656">
        <ele>45.310821</ele>
        <time>2020-06-22T10:56:48.476Z</time>
      </trkpt>
      <trkpt lat="50.59042" lon="3.48628">
        <ele>45.091886</ele>
        <time>2020-06-22T10:56:52.279Z</time>
      </trkpt>
      <trkpt lat="50.59039" lon="3.48507">
        <ele>44.46085</ele>
        <time>2020-06-22T10:57:09.089Z</time>
      </trkpt>
      <trkpt lat="50.59042" lon="3.48498">
        <ele>44.406284</ele>
        <time>2020-06-22T10:57:10.417Z</time>
      </trkpt>
      <trkpt lat="50.59071" lon="3.48457">
        <ele>44.088707</ele>
        <time>2020-06-22T10:57:18.885Z</time>
      </trkpt>
      <trkpt lat="50.59089" lon="3.4842">
        <ele>43.844314</ele>
        <time>2020-06-22T10:57:25.324Z</time>
      </trkpt>
      <trkpt lat="50.59102" lon="3.48367">
        <ele>43.516908</ele>
        <time>2020-06-22T10:57:33.013Z</time>
      </trkpt>
      <trkpt lat="50.5911" lon="3.48351">
        <ele>43.335498</ele>
        <time>2020-06-22T10:57:35.624Z</time>
      </trkpt>
      <trkpt lat="50.59122" lon="3.48337">
        <ele>43.111009</ele>
        <time>2020-06-22T10:57:38.992Z</time>
      </trkpt>
      <trkpt lat="50.5914" lon="3.48328">
        <ele>42.839267</ele>
        <time>2020-06-22T10:57:42.712Z</time>
      </trkpt>
      <trkpt lat="50.59243" lon="3.48273">
        <ele>41.270996</ele>
        <time>2020-06-22T10:58:03.917Z</time>
      </trkpt>
      <trkpt lat="50.59332" lon="3.48142">
        <ele>39.721315</ele>
        <time>2020-06-22T10:58:27.202Z</time>
      </trkpt>
      <trkpt lat="50.59369" lon="3.48082">
        <ele>39.060675</ele>
        <time>2020-06-22T10:58:38.531Z</time>
      </trkpt>
      <trkpt lat="50.59314" lon="3.48023">
        <ele>38.957836</ele>
        <time>2020-06-22T10:58:54.184Z</time>
      </trkpt>
      <trkpt lat="50.59304" lon="3.48014">
        <ele>39.011726</ele>
        <time>2020-06-22T10:58:57.704Z</time>
      </trkpt>
      <trkpt lat="50.59293" lon="3.48005">
        <ele>39.068685</ele>
        <time>2020-06-22T10:59:00.855Z</time>
      </trkpt>
      <trkpt lat="50.59219" lon="3.47937">
        <ele>39.452924</ele>
        <time>2020-06-22T10:59:25.035Z</time>
      </trkpt>
      <trkpt lat="50.59216" lon="3.4792">
        <ele>39.503827</ele>
        <time>2020-06-22T10:59:28.731Z</time>
      </trkpt>
      <trkpt lat="50.59222" lon="3.47886">
        <ele>39.596872</ele>
        <time>2020-06-22T10:59:34.753Z</time>
      </trkpt>
      <trkpt lat="50.59244" lon="3.47797">
        <ele>39.7915</ele>
        <time>2020-06-22T10:59:50.825Z</time>
      </trkpt>
      <trkpt lat="50.59268" lon="3.47728">
        <ele>39.950878</ele>
        <time>2020-06-22T11:00:02.962Z</time>
      </trkpt>
      <trkpt lat="50.59314" lon="3.47621">
        <ele>40.193363</ele>
        <time>2020-06-22T11:00:23.633Z</time>
      </trkpt>
      <trkpt lat="50.59327" lon="3.47572">
        <ele>40.264453</ele>
        <time>2020-06-22T11:00:32.310Z</time>
      </trkpt>
      <trkpt lat="50.59329" lon="3.47563">
        <ele>40.277644</ele>
        <time>2020-06-22T11:00:33.751Z</time>
      </trkpt>
      <trkpt lat="50.59341" lon="3.47519">
        <ele>40.341419</ele>
        <time>2020-06-22T11:00:41.625Z</time>
      </trkpt>
      <trkpt lat="50.59349" lon="3.47485">
        <ele>40.39019</ele>
        <time>2020-06-22T11:00:47.225Z</time>
      </trkpt>
      <trkpt lat="50.59356" lon="3.47475">
        <ele>40.410653</ele>
        <time>2020-06-22T11:00:50.043Z</time>
      </trkpt>
      <trkpt lat="50.59371" lon="3.47448">
        <ele>40.457939</ele>
        <time>2020-06-22T11:00:55.452Z</time>
      </trkpt>
      <trkpt lat="50.59381" lon="3.47432">
        <ele>40.488196</ele>
        <time>2020-06-22T11:00:59.445Z</time>
      </trkpt>
      <trkpt lat="50.59415" lon="3.47402">
        <ele>40.531458</ele>
        <time>2020-06-22T11:01:09.318Z</time>
      </trkpt>
      <trkpt lat="50.59515" lon="3.47314">
        <ele>40.523034</ele>
        <time>2020-06-22T11:01:38.039Z</time>
      </trkpt>
      <trkpt lat="50.59579" lon="3.47278">
        <ele>40.335977</ele>
        <time>2020-06-22T11:01:53.361Z</time>
      </trkpt>
      <trkpt lat="50.59579" lon="3.47291">
        <ele>40.259894</ele>
        <time>2020-06-22T11:01:54.776Z</time>
      </trkpt>
      <trkpt lat="50.59595" lon="3.47275">
        <ele>40.096182</ele>
        <time>2020-06-22T11:01:58.727Z</time>
      </trkpt>
      <trkpt lat="50.59637" lon="3.47245">
        <ele>39.691975</ele>
        <time>2020-06-22T11:02:08.469Z</time>
      </trkpt>
      <trkpt lat="50.59656" lon="3.47237">
        <ele>39.514224</ele>
        <time>2020-06-22T11:02:12.612Z</time>
      </trkpt>
      <trkpt lat="50.59662" lon="3.47236">
        <ele>39.45749</ele>
        <time>2020-06-22T11:02:13.964Z</time>
      </trkpt>
      <trkpt lat="50.59674" lon="3.47241">
        <ele>39.350071</ele>
        <time>2020-06-22T11:02:16.518Z</time>
      </trkpt>
      <trkpt lat="50.59694" lon="3.47157">
        <ele>38.77607</ele>
        <time>2020-06-22T11:02:28.222Z</time>
      </trkpt>
      <trkpt lat="50.59691" lon="3.47138">
        <ele>38.570709</ele>
        <time>2020-06-22T11:02:30.870Z</time>
      </trkpt>
      <trkpt lat="50.59693" lon="3.47125">
        <ele>38.440583</ele>
        <time>2020-06-22T11:02:32.496Z</time>
      </trkpt>
      <trkpt lat="50.5971" lon="3.47089">
        <ele>37.977639</ele>
        <time>2020-06-22T11:02:38.370Z</time>
      </trkpt>
      <trkpt lat="50.59713" lon="3.4708">
        <ele>37.881523</ele>
        <time>2020-06-22T11:02:39.565Z</time>
      </trkpt>
      <trkpt lat="50.59734" lon="3.46984">
        <ele>36.858179</ele>
        <time>2020-06-22T11:02:52.221Z</time>
      </trkpt>
      <trkpt lat="50.59748" lon="3.46916">
        <ele>36.127422</ele>
        <time>2020-06-22T11:03:00.996Z</time>
      </trkpt>
      <trkpt lat="50.59802" lon="3.4695">
        <ele>34.863295</ele>
        <time>2020-06-22T11:03:08.513Z</time>
      </trkpt>
      <trkpt lat="50.59859" lon="3.46986">
        <ele>33.501519</ele>
        <time>2020-06-22T11:03:16.330Z</time>
      </trkpt>
      <trkpt lat="50.59862" lon="3.46989">
        <ele>33.413017</ele>
        <time>2020-06-22T11:03:16.847Z</time>
      </trkpt>
      <trkpt lat="50.59938" lon="3.47033">
        <ele>31.670259</ele>
        <time>2020-06-22T11:03:27.255Z</time>
      </trkpt>
      <trkpt lat="50.59959" lon="3.47034">
        <ele>31.268573</ele>
        <time>2020-06-22T11:03:29.908Z</time>
      </trkpt>
      <trkpt lat="50.60084" lon="3.46996">
        <ele>28.763577</ele>
        <time>2020-06-22T11:03:46.948Z</time>
      </trkpt>
      <trkpt lat="50.60107" lon="3.47009">
        <ele>28.182518</ele>
        <time>2020-06-22T11:03:50.209Z</time>
      </trkpt>
      <trkpt lat="50.60118" lon="3.47021">
        <ele>27.807059</ele>
        <time>2020-06-22T11:03:52.033Z</time>
      </trkpt>
      <trkpt lat="50.60172" lon="3.47099">
        <ele>25.72775</ele>
        <time>2020-06-22T11:04:01.924Z</time>
      </trkpt>
      <trkpt lat="50.60256" lon="3.47185">
        <ele>22.569424</ele>
        <time>2020-06-22T11:04:13.632Z</time>
      </trkpt>
      <trkpt lat="50.60298" lon="3.47212">
        <ele>20.578521</ele>
        <time>2020-06-22T11:04:19.029Z</time>
      </trkpt>
      <trkpt lat="50.60304" lon="3.47216">
        <ele>20.279113</ele>
        <time>2020-06-22T11:04:19.780Z</time>
      </trkpt>
      <trkpt lat="50.6031" lon="3.47219">
        <ele>19.999979</ele>
        <time>2020-06-22T11:04:20.451Z</time>
      </trkpt>
      <trkpt lat="50.60354" lon="3.47232">
        <ele>18.057932</ele>
        <time>2020-06-22T11:04:25.736Z</time>
      </trkpt>
      <trkpt lat="50.60385" lon="3.47232">
        <ele>16.687706</ele>
        <time>2020-06-22T11:04:29.300Z</time>
      </trkpt>
      <trkpt lat="50.60496" lon="3.47205">
        <ele>11.953506</ele>
        <time>2020-06-22T11:04:42.119Z</time>
      </trkpt>
      <trkpt lat="50.60516" lon="3.47202">
        <ele>11.122745</ele>
        <time>2020-06-22T11:04:44.644Z</time>
      </trkpt>
      <trkpt lat="50.60535" lon="3.47205">
        <ele>10.342173</ele>
        <time>2020-06-22T11:04:46.757Z</time>
      </trkpt>
      <trkpt lat="50.60613" lon="3.47237">
        <ele>7.505723</ele>
        <time>2020-06-22T11:04:56.256Z</time>
      </trkpt>
      <trkpt lat="50.60758" lon="3.47353">
        <ele>4.288843</ele>
        <time>2020-06-22T11:05:17.103Z</time>
      </trkpt>
      <trkpt lat="50.60973" lon="3.47511">
        <ele>11.795569</ele>
        <time>2020-06-22T11:06:31.625Z</time>
      </trkpt>
      <trkpt lat="50.6098" lon="3.47517">
        <ele>12.280816</ele>
        <time>2020-06-22T11:06:35.959Z</time>
      </trkpt>
      <trkpt lat="50.61076" lon="3.47588">
        <ele>18.598225</ele>
        <time>2020-06-22T11:07:34.342Z</time>
      </trkpt>
      <trkpt lat="50.61119" lon="3.47603">
        <ele>21.334165</ele>
        <time>2020-06-22T11:07:59.748Z</time>
      </trkpt>
      <trkpt lat="50.61163" lon="3.47606">
        <ele>24.10747</ele>
        <time>2020-06-22T11:08:23.795Z</time>
      </trkpt>
      <trkpt lat="50.61212" lon="3.47601">
        <ele>27.153359</ele>
        <time>2020-06-22T11:08:46.604Z</time>
      </trkpt>
      <trkpt lat="50.6125" lon="3.47598">
        <ele>29.539926</ele>
        <time>2020-06-22T11:09:01.217Z</time>
      </trkpt>
      <trkpt lat="50.61314" lon="3.47606">
        <ele>30.789139</ele>
        <time>2020-06-22T11:09:21.615Z</time>
      </trkpt>
      <trkpt lat="50.61372" lon="3.47635">
        <ele>31.784993</ele>
        <time>2020-06-22T11:09:36.176Z</time>
      </trkpt>
      <trkpt lat="50.61462" lon="3.47684">
        <ele>32.632857</ele>
        <time>2020-06-22T11:09:53.469Z</time>
      </trkpt>
      <trkpt lat="50.61466" lon="3.47636">
        <ele>32.527666</ele>
        <time>2020-06-22T11:09:58.780Z</time>
      </trkpt>
      <trkpt lat="50.6152" lon="3.47351">
        <ele>31.457592</ele>
        <time>2020-06-22T11:10:28.462Z</time>
      </trkpt>
      <trkpt lat="50.6152" lon="3.4732">
        <ele>31.282576</ele>
        <time>2020-06-22T11:10:31.408Z</time>
      </trkpt>
      <trkpt lat="50.6153" lon="3.47319">
        <ele>31.194496</ele>
        <time>2020-06-22T11:10:32.769Z</time>
      </trkpt>
      <trkpt lat="50.61572" lon="3.47335">
        <ele>30.80881</ele>
        <time>2020-06-22T11:10:39.073Z</time>
      </trkpt>
      <trkpt lat="50.61588" lon="3.47334">
        <ele>30.665124</ele>
        <time>2020-06-22T11:10:41.420Z</time>
      </trkpt>
      <trkpt lat="50.61605" lon="3.47324">
        <ele>30.493706</ele>
        <time>2020-06-22T11:10:43.957Z</time>
      </trkpt>
      <trkpt lat="50.61623" lon="3.47297">
        <ele>30.177493</ele>
        <time>2020-06-22T11:10:47.524Z</time>
      </trkpt>
      <trkpt lat="50.61641" lon="3.47254">
        <ele>29.754063</ele>
        <time>2020-06-22T11:10:52.239Z</time>
      </trkpt>
      <trkpt lat="50.61646" lon="3.47231">
        <ele>29.558032</ele>
        <time>2020-06-22T11:10:54.339Z</time>
      </trkpt>
      <trkpt lat="50.61678" lon="3.47025">
        <ele>27.922201</ele>
        <time>2020-06-22T11:11:13.346Z</time>
      </trkpt>
      <trkpt lat="50.61682" lon="3.47002">
        <ele>27.766379</ele>
        <time>2020-06-22T11:11:15.617Z</time>
      </trkpt>
      <trkpt lat="50.61683" lon="3.46986">
        <ele>27.669004</ele>
        <time>2020-06-22T11:11:16.948Z</time>
      </trkpt>
      <trkpt lat="50.61698" lon="3.46879">
        <ele>26.968408</ele>
        <time>2020-06-22T11:11:27.034Z</time>
      </trkpt>
      <trkpt lat="50.61695" lon="3.46819">
        <ele>26.579471</ele>
        <time>2020-06-22T11:11:32.750Z</time>
      </trkpt>
      <trkpt lat="50.61704" lon="3.4682">
        <ele>26.494411</ele>
        <time>2020-06-22T11:11:33.969Z</time>
      </trkpt>
      <trkpt lat="50.61788" lon="3.46864">
        <ele>26.650274</ele>
        <time>2020-06-22T11:11:49.244Z</time>
      </trkpt>
      <trkpt lat="50.61843" lon="3.46944">
        <ele>26.86816</ele>
        <time>2020-06-22T11:12:04.361Z</time>
      </trkpt>
      <trkpt lat="50.61859" lon="3.46943">
        <ele>26.912997</ele>
        <time>2020-06-22T11:12:07.791Z</time>
      </trkpt>
      <trkpt lat="50.61859" lon="3.46946">
        <ele>26.918202</ele>
        <time>2020-06-22T11:12:08.402Z</time>
      </trkpt>
      <trkpt lat="50.6187" lon="3.46956">
        <ele>27.071848</ele>
        <time>2020-06-22T11:12:11.381Z</time>
      </trkpt>
      <trkpt lat="50.61872" lon="3.46955">
        <ele>27.134671</ele>
        <time>2020-06-22T11:12:12.121Z</time>
      </trkpt>
      <trkpt lat="50.61875" lon="3.46951">
        <ele>27.205073</ele>
        <time>2020-06-22T11:12:12.706Z</time>
      </trkpt>
      <trkpt lat="50.61874" lon="3.46933">
        <ele>27.464064</ele>
        <time>2020-06-22T11:12:15.386Z</time>
      </trkpt>
      <trkpt lat="50.61872" lon="3.4693">
        <ele>27.532517</ele>
        <time>2020-06-22T11:12:16.031Z</time>
      </trkpt>
      <trkpt lat="50.61874" lon="3.46919">
        <ele>27.710476</ele>
        <time>2020-06-22T11:12:18.351Z</time>
      </trkpt>
      <trkpt lat="50.61882" lon="3.46906">
        <ele>27.959656</ele>
        <time>2020-06-22T11:12:20.930Z</time>
      </trkpt>
      <trkpt lat="50.6192" lon="3.46906">
        <ele>28.822072</ele>
        <time>2020-06-22T11:12:31.439Z</time>
      </trkpt>
      <trkpt lat="50.61939" lon="3.46886">
        <ele>29.33753</ele>
        <time>2020-06-22T11:12:38.515Z</time>
      </trkpt>
      <trkpt lat="50.61966" lon="3.46753">
        <ele>31.540186</ele>
        <time>2020-06-22T11:13:06.777Z</time>
      </trkpt>
      <trkpt lat="50.62004" lon="3.46748">
        <ele>32.888406</ele>
        <time>2020-06-22T11:13:19.619Z</time>
      </trkpt>
      <trkpt lat="50.62098" lon="3.46721">
        <ele>36.241543</ele>
        <time>2020-06-22T11:13:53.567Z</time>
      </trkpt>
      <trkpt lat="50.62169" lon="3.46724">
        <ele>38.719951</ele>
        <time>2020-06-22T11:14:19.155Z</time>
      </trkpt>
      <trkpt lat="50.62205" lon="3.46737">
        <ele>40.053248</ele>
        <time>2020-06-22T11:14:32.226Z</time>
      </trkpt>
      <trkpt lat="50.62296" lon="3.468">
        <ele>43.550394</ele>
        <time>2020-06-22T11:15:06.412Z</time>
      </trkpt>
      <trkpt lat="50.62367" lon="3.46963">
        <ele>47.513056</ele>
        <time>2020-06-22T11:15:48.571Z</time>
      </trkpt>
      <trkpt lat="50.62395" lon="3.47004">
        <ele>48.692317</ele>
        <time>2020-06-22T11:16:00.814Z</time>
      </trkpt>
      <trkpt lat="50.6252" lon="3.47058">
        <ele>51.392964</ele>
        <time>2020-06-22T11:16:39.696Z</time>
      </trkpt>
      <trkpt lat="50.62553" lon="3.47075">
        <ele>52.053102</ele>
        <time>2020-06-22T11:16:48.392Z</time>
      </trkpt>
      <trkpt lat="50.62606" lon="3.47097">
        <ele>52.607741</ele>
        <time>2020-06-22T11:17:00.514Z</time>
      </trkpt>
      <trkpt lat="50.62837" lon="3.47257">
        <ele>50.359744</ele>
        <time>2020-06-22T11:17:38.143Z</time>
      </trkpt>
      <trkpt lat="50.62912" lon="3.47344">
        <ele>48.953645</ele>
        <time>2020-06-22T11:17:50.312Z</time>
      </trkpt>
      <trkpt lat="50.62937" lon="3.47366">
        <ele>48.434618</ele>
        <time>2020-06-22T11:17:53.982Z</time>
      </trkpt>
      <trkpt lat="50.62972" lon="3.47378">
        <ele>47.784451</ele>
        <time>2020-06-22T11:17:58.565Z</time>
      </trkpt>
      <trkpt lat="50.63104" lon="3.47372">
        <ele>45.658184</ele>
        <time>2020-06-22T11:18:16.490Z</time>
      </trkpt>
      <trkpt lat="50.63155" lon="3.47359">
        <ele>45.412647</ele>
        <time>2020-06-22T11:18:24.283Z</time>
      </trkpt>
      <trkpt lat="50.63333" lon="3.47252">
        <ele>45.461636</ele>
        <time>2020-06-22T11:18:59.013Z</time>
      </trkpt>
      <trkpt lat="50.63361" lon="3.47264">
        <ele>45.656786</ele>
        <time>2020-06-22T11:19:05.335Z</time>
      </trkpt>
      <trkpt lat="50.63544" lon="3.47492">
        <ele>48.599429</ele>
        <time>2020-06-22T11:20:01.434Z</time>
      </trkpt>
      <trkpt lat="50.63567" lon="3.47498">
        <ele>49.058043</ele>
        <time>2020-06-22T11:20:07.751Z</time>
      </trkpt>
      <trkpt lat="50.63834" lon="3.47456">
        <ele>56.646782</ele>
        <time>2020-06-22T11:21:32.617Z</time>
      </trkpt>
      <trkpt lat="50.63837" lon="3.47455">
        <ele>56.734392</ele>
        <time>2020-06-22T11:21:33.536Z</time>
      </trkpt>
      <trkpt lat="50.63873" lon="3.47451">
        <ele>57.856632</ele>
        <time>2020-06-22T11:21:45.575Z</time>
      </trkpt>
      <trkpt lat="50.63999" lon="3.47435">
        <ele>61.59563</ele>
        <time>2020-06-22T11:22:29.281Z</time>
      </trkpt>
      <trkpt lat="50.64087" lon="3.47424">
        <ele>64.113069</ele>
        <time>2020-06-22T11:22:55.675Z</time>
      </trkpt>
      <trkpt lat="50.64092" lon="3.47422">
        <ele>64.256248</ele>
        <time>2020-06-22T11:22:57.463Z</time>
      </trkpt>
      <trkpt lat="50.64102" lon="3.47418">
        <ele>64.377222</ele>
        <time>2020-06-22T11:23:00.225Z</time>
      </trkpt>
      <trkpt lat="50.64145" lon="3.47375">
        <ele>64.719354</ele>
        <time>2020-06-22T11:23:13.324Z</time>
      </trkpt>
      <trkpt lat="50.64203" lon="3.47276">
        <ele>65.297842</ele>
        <time>2020-06-22T11:23:30.832Z</time>
      </trkpt>
      <trkpt lat="50.64256" lon="3.47201">
        <ele>65.050698</ele>
        <time>2020-06-22T11:23:41.438Z</time>
      </trkpt>
      <trkpt lat="50.64257" lon="3.47199">
        <ele>65.016774</ele>
        <time>2020-06-22T11:23:41.727Z</time>
      </trkpt>
      <trkpt lat="50.64292" lon="3.47148">
        <ele>64.369535</ele>
        <time>2020-06-22T11:23:48.482Z</time>
      </trkpt>
      <trkpt lat="50.64375" lon="3.46964">
        <ele>62.585978</ele>
        <time>2020-06-22T11:24:07.898Z</time>
      </trkpt>
      <trkpt lat="50.64393" lon="3.46902">
        <ele>62.149938</ele>
        <time>2020-06-22T11:24:14.043Z</time>
      </trkpt>
      <trkpt lat="50.64394" lon="3.46898">
        <ele>62.121146</ele>
        <time>2020-06-22T11:24:14.453Z</time>
      </trkpt>
      <trkpt lat="50.64459" lon="3.4661">
        <ele>60.945683</ele>
        <time>2020-06-22T11:24:45.215Z</time>
      </trkpt>
      <trkpt lat="50.64537" lon="3.46302">
        <ele>60.724394</ele>
        <time>2020-06-22T11:25:23.479Z</time>
      </trkpt>
      <trkpt lat="50.64791" lon="3.45877">
        <ele>59.81836</ele>
        <time>2020-06-22T11:26:26.659Z</time>
      </trkpt>
      <trkpt lat="50.64868" lon="3.45742">
        <ele>58.331611</ele>
        <time>2020-06-22T11:26:43.077Z</time>
      </trkpt>
      <trkpt lat="50.64911" lon="3.45649">
        <ele>57.161604</ele>
        <time>2020-06-22T11:26:52.724Z</time>
      </trkpt>
      <trkpt lat="50.64921" lon="3.45607">
        <ele>56.677381</ele>
        <time>2020-06-22T11:26:56.408Z</time>
      </trkpt>
      <trkpt lat="50.64923" lon="3.456">
        <ele>56.570151</ele>
        <time>2020-06-22T11:26:57.066Z</time>
      </trkpt>
      <trkpt lat="50.64942" lon="3.455">
        <ele>55.137787</ele>
        <time>2020-06-22T11:27:05.762Z</time>
      </trkpt>
      <trkpt lat="50.64956" lon="3.45423">
        <ele>54.042332</ele>
        <time>2020-06-22T11:27:12.402Z</time>
      </trkpt>
      <trkpt lat="50.64968" lon="3.45377">
        <ele>53.366855</ele>
        <time>2020-06-22T11:27:16.430Z</time>
      </trkpt>
      <trkpt lat="50.65029" lon="3.45234">
        <ele>50.727645</ele>
        <time>2020-06-22T11:27:30.595Z</time>
      </trkpt>
      <trkpt lat="50.65049" lon="3.45189">
        <ele>49.875111</ele>
        <time>2020-06-22T11:27:35.016Z</time>
      </trkpt>
      <trkpt lat="50.65076" lon="3.45148">
        <ele>48.945761</ele>
        <time>2020-06-22T11:27:39.740Z</time>
      </trkpt>
      <trkpt lat="50.65093" lon="3.45133">
        <ele>48.457886</ele>
        <time>2020-06-22T11:27:42.257Z</time>
      </trkpt>
      <trkpt lat="50.65104" lon="3.45124">
        <ele>48.102648</ele>
        <time>2020-06-22T11:27:43.807Z</time>
      </trkpt>
      <trkpt lat="50.65111" lon="3.45119">
        <ele>47.903226</ele>
        <time>2020-06-22T11:27:44.623Z</time>
      </trkpt>
      <trkpt lat="50.65163" lon="3.45063">
        <ele>46.116327</ele>
        <time>2020-06-22T11:27:52.504Z</time>
      </trkpt>
      <trkpt lat="50.65194" lon="3.45042">
        <ele>45.155179</ele>
        <time>2020-06-22T11:27:56.750Z</time>
      </trkpt>
      <trkpt lat="50.65228" lon="3.4503">
        <ele>44.172376</ele>
        <time>2020-06-22T11:28:01.020Z</time>
      </trkpt>
      <trkpt lat="50.6529" lon="3.45037">
        <ele>42.395441</ele>
        <time>2020-06-22T11:28:08.682Z</time>
      </trkpt>
      <trkpt lat="50.65333" lon="3.45004">
        <ele>41.049862</ele>
        <time>2020-06-22T11:28:14.554Z</time>
      </trkpt>
      <trkpt lat="50.65374" lon="3.44965">
        <ele>39.701795</ele>
        <time>2020-06-22T11:28:20.485Z</time>
      </trkpt>
      <trkpt lat="50.65382" lon="3.44958">
        <ele>39.447749</ele>
        <time>2020-06-22T11:28:21.563Z</time>
      </trkpt>
      <trkpt lat="50.65387" lon="3.44944">
        <ele>39.174196</ele>
        <time>2020-06-22T11:28:22.847Z</time>
      </trkpt>
      <trkpt lat="50.65397" lon="3.44915">
        <ele>38.573965</ele>
        <time>2020-06-22T11:28:25.543Z</time>
      </trkpt>
      <trkpt lat="50.65404" lon="3.4488">
        <ele>38.165872</ele>
        <time>2020-06-22T11:28:28.626Z</time>
      </trkpt>
      <trkpt lat="50.65406" lon="3.44859">
        <ele>38.023908</ele>
        <time>2020-06-22T11:28:30.350Z</time>
      </trkpt>
      <trkpt lat="50.65403" lon="3.44837">
        <ele>37.873505</ele>
        <time>2020-06-22T11:28:32.279Z</time>
      </trkpt>
      <trkpt lat="50.65381" lon="3.44753">
        <ele>37.265971</ele>
        <time>2020-06-22T11:28:40.081Z</time>
      </trkpt>
      <trkpt lat="50.65375" lon="3.44729">
        <ele>37.091624</ele>
        <time>2020-06-22T11:28:42.505Z</time>
      </trkpt>
      <trkpt lat="50.65371" lon="3.44714">
        <ele>36.978897</ele>
        <time>2020-06-22T11:28:44.135Z</time>
      </trkpt>
      <trkpt lat="50.65336" lon="3.44581">
        <ele>36.950336</ele>
        <time>2020-06-22T11:29:01.864Z</time>
      </trkpt>
      <trkpt lat="50.65335" lon="3.44515">
        <ele>37.539403</ele>
        <time>2020-06-22T11:29:12.002Z</time>
      </trkpt>
      <trkpt lat="50.65315" lon="3.44445">
        <ele>38.229466</ele>
        <time>2020-06-22T11:29:24.919Z</time>
      </trkpt>
      <trkpt lat="50.65317" lon="3.44432">
        <ele>38.349066</ele>
        <time>2020-06-22T11:29:27.246Z</time>
      </trkpt>
      <trkpt lat="50.6532" lon="3.44422">
        <ele>38.4563</ele>
        <time>2020-06-22T11:29:29.283Z</time>
      </trkpt>
      <trkpt lat="50.65411" lon="3.4435">
        <ele>40.389975</ele>
        <time>2020-06-22T11:29:57.322Z</time>
      </trkpt>
      <trkpt lat="50.65498" lon="3.44194">
        <ele>43.350354</ele>
        <time>2020-06-22T11:30:35.516Z</time>
      </trkpt>
      <trkpt lat="50.65509" lon="3.44161">
        <ele>43.942125</ele>
        <time>2020-06-22T11:30:41.811Z</time>
      </trkpt>
      <trkpt lat="50.65513" lon="3.4415">
        <ele>44.156973</ele>
        <time>2020-06-22T11:30:44.339Z</time>
      </trkpt>
      <trkpt lat="50.65571" lon="3.43951">
        <ele>47.747432</ele>
        <time>2020-06-22T11:31:26.162Z</time>
      </trkpt>
      <trkpt lat="50.656" lon="3.4382">
        <ele>50.829408</ele>
        <time>2020-06-22T11:31:55.982Z</time>
      </trkpt>
      <trkpt lat="50.65616" lon="3.43725">
        <ele>53.031074</ele>
        <time>2020-06-22T11:32:19.523Z</time>
      </trkpt>
      <trkpt lat="50.6563" lon="3.43572">
        <ele>55.637394</ele>
        <time>2020-06-22T11:32:53.837Z</time>
      </trkpt>
      <trkpt lat="50.65632" lon="3.43472">
        <ele>57.175976</ele>
        <time>2020-06-22T11:33:11.908Z</time>
      </trkpt>
      <trkpt lat="50.65671" lon="3.43464">
        <ele>58.112804</ele>
        <time>2020-06-22T11:33:20.391Z</time>
      </trkpt>
      <trkpt lat="50.65718" lon="3.43468">
        <ele>58.187025</ele>
        <time>2020-06-22T11:33:30.079Z</time>
      </trkpt>
      <trkpt lat="50.65779" lon="3.43498">
        <ele>58.245294</ele>
        <time>2020-06-22T11:33:41.545Z</time>
      </trkpt>
      <trkpt lat="50.658" lon="3.43509">
        <ele>58.266035</ele>
        <time>2020-06-22T11:33:44.805Z</time>
      </trkpt>
      <trkpt lat="50.65856" lon="3.43381">
        <ele>58.461695</ele>
        <time>2020-06-22T11:34:01.540Z</time>
      </trkpt>
      <trkpt lat="50.65884" lon="3.43243">
        <ele>58.732265</ele>
        <time>2020-06-22T11:34:19.887Z</time>
      </trkpt>
      <trkpt lat="50.65891" lon="3.43209">
        <ele>58.799438</ele>
        <time>2020-06-22T11:34:24.703Z</time>
      </trkpt>
      <trkpt lat="50.65893" lon="3.43186">
        <ele>58.842782</ele>
        <time>2020-06-22T11:34:27.824Z</time>
      </trkpt>
      <trkpt lat="50.65889" lon="3.43161">
        <ele>59.034042</ele>
        <time>2020-06-22T11:34:31.323Z</time>
      </trkpt>
      <trkpt lat="50.65858" lon="3.43129">
        <ele>59.468586</ele>
        <time>2020-06-22T11:34:39.260Z</time>
      </trkpt>
      <trkpt lat="50.65849" lon="3.43116">
        <ele>59.607186</ele>
        <time>2020-06-22T11:34:41.929Z</time>
      </trkpt>
      <trkpt lat="50.65845" lon="3.43095">
        <ele>59.768486</ele>
        <time>2020-06-22T11:34:45.004Z</time>
      </trkpt>
      <trkpt lat="50.65847" lon="3.42991">
        <ele>60.529496</ele>
        <time>2020-06-22T11:35:00.422Z</time>
      </trkpt>
      <trkpt lat="50.65836" lon="3.4287">
        <ele>62.18092</ele>
        <time>2020-06-22T11:35:20.912Z</time>
      </trkpt>
      <trkpt lat="50.65854" lon="3.4278">
        <ele>63.899591</ele>
        <time>2020-06-22T11:35:40.073Z</time>
      </trkpt>
      <trkpt lat="50.65857" lon="3.42659">
        <ele>66.100746</ele>
        <time>2020-06-22T11:36:06.280Z</time>
      </trkpt>
      <trkpt lat="50.65856" lon="3.42643">
        <ele>66.468</ele>
        <time>2020-06-22T11:36:10.244Z</time>
      </trkpt>
      <trkpt lat="50.65853" lon="3.42587">
        <ele>67.76803</ele>
        <time>2020-06-22T11:36:23.262Z</time>
      </trkpt>
      <trkpt lat="50.65913" lon="3.42417">
        <ele>72.250886</ele>
        <time>2020-06-22T11:37:09.201Z</time>
      </trkpt>
      <trkpt lat="50.65923" lon="3.42397">
        <ele>72.674377</ele>
        <time>2020-06-22T11:37:13.801Z</time>
      </trkpt>
      <trkpt lat="50.65936" lon="3.42386">
        <ele>72.788981</ele>
        <time>2020-06-22T11:37:18.882Z</time>
      </trkpt>
      <trkpt lat="50.65948" lon="3.42378">
        <ele>72.885479</ele>
        <time>2020-06-22T11:37:21.869Z</time>
      </trkpt>
      <trkpt lat="50.65983" lon="3.42289">
        <ele>73.387474</ele>
        <time>2020-06-22T11:37:37.580Z</time>
      </trkpt>
      <trkpt lat="50.66001" lon="3.42204">
        <ele>73.818303</ele>
        <time>2020-06-22T11:37:47.687Z</time>
      </trkpt>
      <trkpt lat="50.66044" lon="3.42089">
        <ele>72.953512</ele>
        <time>2020-06-22T11:37:59.243Z</time>
      </trkpt>
      <trkpt lat="50.66051" lon="3.42054">
        <ele>72.553601</ele>
        <time>2020-06-22T11:38:02.300Z</time>
      </trkpt>
      <trkpt lat="50.66054" lon="3.41977">
        <ele>71.720409</ele>
        <time>2020-06-22T11:38:08.756Z</time>
      </trkpt>
      <trkpt lat="50.66065" lon="3.41921">
        <ele>71.091247</ele>
        <time>2020-06-22T11:38:13.717Z</time>
      </trkpt>
      <trkpt lat="50.66077" lon="3.41846">
        <ele>70.375378</ele>
        <time>2020-06-22T11:38:20.402Z</time>
      </trkpt>
      <trkpt lat="50.66088" lon="3.41783">
        <ele>69.785403</ele>
        <time>2020-06-22T11:38:26.375Z</time>
      </trkpt>
      <trkpt lat="50.6611" lon="3.41619">
        <ele>68.267502</ele>
        <time>2020-06-22T11:38:41.283Z</time>
      </trkpt>
      <trkpt lat="50.66109" lon="3.41556">
        <ele>67.574391</ele>
        <time>2020-06-22T11:38:47.078Z</time>
      </trkpt>
      <trkpt lat="50.66106" lon="3.4154">
        <ele>67.3857</ele>
        <time>2020-06-22T11:38:48.647Z</time>
      </trkpt>
      <trkpt lat="50.66104" lon="3.4153">
        <ele>67.277293</ele>
        <time>2020-06-22T11:38:49.439Z</time>
      </trkpt>
      <trkpt lat="50.66099" lon="3.41477">
        <ele>66.689255</ele>
        <time>2020-06-22T11:38:54.184Z</time>
      </trkpt>
      <trkpt lat="50.66117" lon="3.41165">
        <ele>62.585255</ele>
        <time>2020-06-22T11:39:20.181Z</time>
      </trkpt>
      <trkpt lat="50.66124" lon="3.41138">
        <ele>62.162266</ele>
        <time>2020-06-22T11:39:22.531Z</time>
      </trkpt>
      <trkpt lat="50.66166" lon="3.41039">
        <ele>60.344905</ele>
        <time>2020-06-22T11:39:32.171Z</time>
      </trkpt>
      <trkpt lat="50.66192" lon="3.40929">
        <ele>58.457539</ele>
        <time>2020-06-22T11:39:41.337Z</time>
      </trkpt>
      <trkpt lat="50.66226" lon="3.40841">
        <ele>56.793795</ele>
        <time>2020-06-22T11:39:49.646Z</time>
      </trkpt>
      <trkpt lat="50.66242" lon="3.40806">
        <ele>56.405968</ele>
        <time>2020-06-22T11:39:53.217Z</time>
      </trkpt>
      <trkpt lat="50.66244" lon="3.40791">
        <ele>56.309791</ele>
        <time>2020-06-22T11:39:54.548Z</time>
      </trkpt>
      <trkpt lat="50.66255" lon="3.40585">
        <ele>55.075836</ele>
        <time>2020-06-22T11:40:13.362Z</time>
      </trkpt>
      <trkpt lat="50.66276" lon="3.4039">
        <ele>56.756617</ele>
        <time>2020-06-22T11:40:43.302Z</time>
      </trkpt>
      <trkpt lat="50.66277" lon="3.40383">
        <ele>56.847449</ele>
        <time>2020-06-22T11:40:44.698Z</time>
      </trkpt>
      <trkpt lat="50.66283" lon="3.40334">
        <ele>57.405719</ele>
        <time>2020-06-22T11:40:53.929Z</time>
      </trkpt>
      <trkpt lat="50.66305" lon="3.40198">
        <ele>59.59146</ele>
        <time>2020-06-22T11:41:23.946Z</time>
      </trkpt>
      <trkpt lat="50.66301" lon="3.40094">
        <ele>61.554789</ele>
        <time>2020-06-22T11:41:47.228Z</time>
      </trkpt>
      <trkpt lat="50.66305" lon="3.40039">
        <ele>62.603738</ele>
        <time>2020-06-22T11:41:58.321Z</time>
      </trkpt>
      <trkpt lat="50.66311" lon="3.40006">
        <ele>63.241381</ele>
        <time>2020-06-22T11:42:05.451Z</time>
      </trkpt>
      <trkpt lat="50.66323" lon="3.40004">
        <ele>63.403712</ele>
        <time>2020-06-22T11:42:07.671Z</time>
      </trkpt>
      <trkpt lat="50.66325" lon="3.39971">
        <ele>63.323857</ele>
        <time>2020-06-22T11:42:13.834Z</time>
      </trkpt>
      <trkpt lat="50.66334" lon="3.39868">
        <ele>63.072785</ele>
        <time>2020-06-22T11:42:27.804Z</time>
      </trkpt>
      <trkpt lat="50.66348" lon="3.39779">
        <ele>62.849812</ele>
        <time>2020-06-22T11:42:36.047Z</time>
      </trkpt>
      <trkpt lat="50.66367" lon="3.39696">
        <ele>62.013726</ele>
        <time>2020-06-22T11:42:42.767Z</time>
      </trkpt>
      <trkpt lat="50.66396" lon="3.39614">
        <ele>60.360463</ele>
        <time>2020-06-22T11:42:49.964Z</time>
      </trkpt>
      <trkpt lat="50.66406" lon="3.3959">
        <ele>59.844314</ele>
        <time>2020-06-22T11:42:52.099Z</time>
      </trkpt>
      <trkpt lat="50.66455" lon="3.39498">
        <ele>57.726274</ele>
        <time>2020-06-22T11:43:01.798Z</time>
      </trkpt>
      <trkpt lat="50.66464" lon="3.39479">
        <ele>57.77386</ele>
        <time>2020-06-22T11:43:04.089Z</time>
      </trkpt>
      <trkpt lat="50.66466" lon="3.39449">
        <ele>57.833045</ele>
        <time>2020-06-22T11:43:06.583Z</time>
      </trkpt>
      <trkpt lat="50.66462" lon="3.39399">
        <ele>57.934159</ele>
        <time>2020-06-22T11:43:11.396Z</time>
      </trkpt>
      <trkpt lat="50.66458" lon="3.39352">
        <ele>58.027812</ele>
        <time>2020-06-22T11:43:17.571Z</time>
      </trkpt>
      <trkpt lat="50.66454" lon="3.39289">
        <ele>58.15443</ele>
        <time>2020-06-22T11:43:27.883Z</time>
      </trkpt>
      <trkpt lat="50.6644" lon="3.39099">
        <ele>58.992769</ele>
        <time>2020-06-22T11:44:00.224Z</time>
      </trkpt>
      <trkpt lat="50.66439" lon="3.39053">
        <ele>59.256758</ele>
        <time>2020-06-22T11:44:07.481Z</time>
      </trkpt>
      <trkpt lat="50.66442" lon="3.39005">
        <ele>59.53072</ele>
        <time>2020-06-22T11:44:13.582Z</time>
      </trkpt>
      <trkpt lat="50.6645" lon="3.38908">
        <ele>59.571377</ele>
        <time>2020-06-22T11:44:23.867Z</time>
      </trkpt>
      <trkpt lat="50.66464" lon="3.38803">
        <ele>58.370721</ele>
        <time>2020-06-22T11:44:33.429Z</time>
      </trkpt>
      <trkpt lat="50.6648" lon="3.38763">
        <ele>57.8403</ele>
        <time>2020-06-22T11:44:37.294Z</time>
      </trkpt>
      <trkpt lat="50.66609" lon="3.38616">
        <ele>54.392499</ele>
        <time>2020-06-22T11:44:57.241Z</time>
      </trkpt>
      <trkpt lat="50.66679" lon="3.38539">
        <ele>52.325421</ele>
        <time>2020-06-22T11:45:08.213Z</time>
      </trkpt>
      <trkpt lat="50.66745" lon="3.38464">
        <ele>51.040415</ele>
        <time>2020-06-22T11:45:19.137Z</time>
      </trkpt>
      <trkpt lat="50.66885" lon="3.38211">
        <ele>47.807295</ele>
        <time>2020-06-22T11:45:49.561Z</time>
      </trkpt>
      <trkpt lat="50.66975" lon="3.38082">
        <ele>45.381913</ele>
        <time>2020-06-22T11:46:05.811Z</time>
      </trkpt>
      <trkpt lat="50.67009" lon="3.38033">
        <ele>44.195353</ele>
        <time>2020-06-22T11:46:11.700Z</time>
      </trkpt>
      <trkpt lat="50.6704" lon="3.37989">
        <ele>43.126524</ele>
        <time>2020-06-22T11:46:16.856Z</time>
      </trkpt>
      <trkpt lat="50.67053" lon="3.37967">
        <ele>42.643722</ele>
        <time>2020-06-22T11:46:19.179Z</time>
      </trkpt>
      <trkpt lat="50.6706" lon="3.37937">
        <ele>42.078225</ele>
        <time>2020-06-22T11:46:21.607Z</time>
      </trkpt>
      <trkpt lat="50.67077" lon="3.37694">
        <ele>36.622537</ele>
        <time>2020-06-22T11:46:40.096Z</time>
      </trkpt>
      <trkpt lat="50.67116" lon="3.37558">
        <ele>33.329709</ele>
        <time>2020-06-22T11:46:51.563Z</time>
      </trkpt>
      <trkpt lat="50.67127" lon="3.3755">
        <ele>32.897036</ele>
        <time>2020-06-22T11:46:52.993Z</time>
      </trkpt>
      <trkpt lat="50.67146" lon="3.37537">
        <ele>32.204234</ele>
        <time>2020-06-22T11:46:55.518Z</time>
      </trkpt>
      <trkpt lat="50.67158" lon="3.37519">
        <ele>31.618979</ele>
        <time>2020-06-22T11:46:57.495Z</time>
      </trkpt>
      <trkpt lat="50.67171" lon="3.37387">
        <ele>28.793525</ele>
        <time>2020-06-22T11:47:07.816Z</time>
      </trkpt>
      <trkpt lat="50.6716" lon="3.37142">
        <ele>24.018196</ele>
        <time>2020-06-22T11:47:26.941Z</time>
      </trkpt>
      <trkpt lat="50.6716" lon="3.37073">
        <ele>23.052866</ele>
        <time>2020-06-22T11:47:32.338Z</time>
      </trkpt>
      <trkpt lat="50.67191" lon="3.36778">
        <ele>19.5574</ele>
        <time>2020-06-22T11:47:57.567Z</time>
      </trkpt>
      <trkpt lat="50.67206" lon="3.36718">
        <ele>19.152549</ele>
        <time>2020-06-22T11:48:03.693Z</time>
      </trkpt>
      <trkpt lat="50.67253" lon="3.36526">
        <ele>18.131872</ele>
        <time>2020-06-22T11:48:25.403Z</time>
      </trkpt>
      <trkpt lat="50.67259" lon="3.36438">
        <ele>17.883967</ele>
        <time>2020-06-22T11:48:34.577Z</time>
      </trkpt>
      <trkpt lat="50.67256" lon="3.36409">
        <ele>17.800973</ele>
        <time>2020-06-22T11:48:37.579Z</time>
      </trkpt>
      <trkpt lat="50.6724" lon="3.36348">
        <ele>17.619142</ele>
        <time>2020-06-22T11:48:44.062Z</time>
      </trkpt>
      <trkpt lat="50.67178" lon="3.3639">
        <ele>17.406329</ele>
        <time>2020-06-22T11:48:54.369Z</time>
      </trkpt>
      <trkpt lat="50.67153" lon="3.36403">
        <ele>17.330241</ele>
        <time>2020-06-22T11:48:58.481Z</time>
      </trkpt>
      <trkpt lat="50.67051" lon="3.3646">
        <ele>17.133877</ele>
        <time>2020-06-22T11:49:16.749Z</time>
      </trkpt>
      <trkpt lat="50.66782" lon="3.36607">
        <ele>19.54751</ele>
        <time>2020-06-22T11:50:22.352Z</time>
      </trkpt>
      <trkpt lat="50.66763" lon="3.36615">
        <ele>19.703845</ele>
        <time>2020-06-22T11:50:26.207Z</time>
      </trkpt>
      <trkpt lat="50.66749" lon="3.36622">
        <ele>19.820309</ele>
        <time>2020-06-22T11:50:29.584Z</time>
      </trkpt>
      <trkpt lat="50.66716" lon="3.36633">
        <ele>20.047315</ele>
        <time>2020-06-22T11:50:36.067Z</time>
      </trkpt>
      <trkpt lat="50.66684" lon="3.3664">
        <ele>19.830908</ele>
        <time>2020-06-22T11:50:41.804Z</time>
      </trkpt>
      <trkpt lat="50.66647" lon="3.36637">
        <ele>19.586696</ele>
        <time>2020-06-22T11:50:47.850Z</time>
      </trkpt>
      <trkpt lat="50.66602" lon="3.3663">
        <ele>19.281278</ele>
        <time>2020-06-22T11:50:54.767Z</time>
      </trkpt>
      <trkpt lat="50.66559" lon="3.36612">
        <ele>18.988762</ele>
        <time>2020-06-22T11:51:00.873Z</time>
      </trkpt>
      <trkpt lat="50.66532" lon="3.36598">
        <ele>18.766608</ele>
        <time>2020-06-22T11:51:04.983Z</time>
      </trkpt>
      <trkpt lat="50.66506" lon="3.36579">
        <ele>18.500921</ele>
        <time>2020-06-22T11:51:09.035Z</time>
      </trkpt>
      <trkpt lat="50.66456" lon="3.36537">
        <ele>17.97503</ele>
        <time>2020-06-22T11:51:17.106Z</time>
      </trkpt>
      <trkpt lat="50.6641" lon="3.36496">
        <ele>17.488042</ele>
        <time>2020-06-22T11:51:25.152Z</time>
      </trkpt>
      <trkpt lat="50.66367" lon="3.36457">
        <ele>17.24312</ele>
        <time>2020-06-22T11:51:32.938Z</time>
      </trkpt>
      <trkpt lat="50.66341" lon="3.36435">
        <ele>17.321897</ele>
        <time>2020-06-22T11:51:38.217Z</time>
      </trkpt>
      <trkpt lat="50.66329" lon="3.36427">
        <ele>17.354101</ele>
        <time>2020-06-22T11:51:40.324Z</time>
      </trkpt>
      <trkpt lat="50.66327" lon="3.36425">
        <ele>17.361503</ele>
        <time>2020-06-22T11:51:41.025Z</time>
      </trkpt>
      <trkpt lat="50.663" lon="3.36413">
        <ele>17.43307</ele>
        <time>2020-06-22T11:51:46.434Z</time>
      </trkpt>
      <trkpt lat="50.66249" lon="3.36406">
        <ele>17.567363</ele>
        <time>2020-06-22T11:51:57.257Z</time>
      </trkpt>
      <trkpt lat="50.66186" lon="3.364">
        <ele>17.769921</ele>
        <time>2020-06-22T11:52:10.406Z</time>
      </trkpt>
      <trkpt lat="50.66156" lon="3.36399">
        <ele>17.894462</ele>
        <time>2020-06-22T11:52:16.793Z</time>
      </trkpt>
      <trkpt lat="50.66107" lon="3.36398">
        <ele>18.096847</ele>
        <time>2020-06-22T11:52:26.791Z</time>
      </trkpt>
      <trkpt lat="50.66073" lon="3.36398">
        <ele>18.237406</ele>
        <time>2020-06-22T11:52:33.508Z</time>
      </trkpt>
      <trkpt lat="50.65967" lon="3.36381">
        <ele>18.103351</ele>
        <time>2020-06-22T11:52:52.288Z</time>
      </trkpt>
      <trkpt lat="50.65791" lon="3.36316">
        <ele>17.202106</ele>
        <time>2020-06-22T11:53:19.818Z</time>
      </trkpt>
      <trkpt lat="50.65735" lon="3.36283">
        <ele>16.863314</ele>
        <time>2020-06-22T11:53:28.977Z</time>
      </trkpt>
      <trkpt lat="50.65666" lon="3.36246">
        <ele>16.677005</ele>
        <time>2020-06-22T11:53:40.951Z</time>
      </trkpt>
      <trkpt lat="50.65661" lon="3.36244">
        <ele>16.712905</ele>
        <time>2020-06-22T11:53:41.982Z</time>
      </trkpt>
      <trkpt lat="50.65588" lon="3.36219">
        <ele>17.189389</ele>
        <time>2020-06-22T11:53:56.296Z</time>
      </trkpt>
      <trkpt lat="50.65582" lon="3.36219">
        <ele>17.233073</ele>
        <time>2020-06-22T11:53:57.774Z</time>
      </trkpt>
      <trkpt lat="50.65516" lon="3.36221">
        <ele>17.655114</ele>
        <time>2020-06-22T11:54:12.842Z</time>
      </trkpt>
      <trkpt lat="50.65438" lon="3.36219">
        <ele>19.209793</ele>
        <time>2020-06-22T11:54:33.543Z</time>
      </trkpt>
      <trkpt lat="50.65431" lon="3.36219">
        <ele>19.373542</ele>
        <time>2020-06-22T11:54:35.695Z</time>
      </trkpt>
      <trkpt lat="50.65387" lon="3.36219">
        <ele>20.321072</ele>
        <time>2020-06-22T11:54:48.334Z</time>
      </trkpt>
      <trkpt lat="50.65365" lon="3.3622">
        <ele>20.819045</ele>
        <time>2020-06-22T11:54:55.114Z</time>
      </trkpt>
      <trkpt lat="50.65272" lon="3.36221">
        <ele>23.084114</ele>
        <time>2020-06-22T11:55:23.335Z</time>
      </trkpt>
      <trkpt lat="50.65208" lon="3.36251">
        <ele>24.84978</ele>
        <time>2020-06-22T11:55:44.477Z</time>
      </trkpt>
      <trkpt lat="50.65039" lon="3.36387">
        <ele>28.932154</ele>
        <time>2020-06-22T11:56:40.263Z</time>
      </trkpt>
      <trkpt lat="50.6498" lon="3.36436">
        <ele>29.79315</ele>
        <time>2020-06-22T11:56:54.959Z</time>
      </trkpt>
      <trkpt lat="50.64938" lon="3.36499">
        <ele>29.592319</ele>
        <time>2020-06-22T11:57:05.921Z</time>
      </trkpt>
      <trkpt lat="50.64933" lon="3.3651">
        <ele>29.563638</ele>
        <time>2020-06-22T11:57:07.487Z</time>
      </trkpt>
      <trkpt lat="50.64931" lon="3.36505">
        <ele>29.549208</ele>
        <time>2020-06-22T11:57:08.014Z</time>
      </trkpt>
      <trkpt lat="50.64891" lon="3.3642">
        <ele>29.319226</ele>
        <time>2020-06-22T11:57:18.319Z</time>
      </trkpt>
      <trkpt lat="50.64866" lon="3.36345">
        <ele>28.625051</ele>
        <time>2020-06-22T11:57:25.857Z</time>
      </trkpt>
      <trkpt lat="50.64831" lon="3.36283">
        <ele>27.530761</ele>
        <time>2020-06-22T11:57:32.728Z</time>
      </trkpt>
      <trkpt lat="50.64785" lon="3.36217">
        <ele>26.236119</ele>
        <time>2020-06-22T11:57:40.921Z</time>
      </trkpt>
      <trkpt lat="50.64771" lon="3.36192">
        <ele>25.791897</ele>
        <time>2020-06-22T11:57:43.484Z</time>
      </trkpt>
      <trkpt lat="50.64768" lon="3.36176">
        <ele>25.576172</ele>
        <time>2020-06-22T11:57:44.916Z</time>
      </trkpt>
      <trkpt lat="50.64765" lon="3.36161">
        <ele>25.334411</ele>
        <time>2020-06-22T11:57:46.115Z</time>
      </trkpt>
      <trkpt lat="50.64765" lon="3.36139">
        <ele>24.96903</ele>
        <time>2020-06-22T11:57:47.839Z</time>
      </trkpt>
      <trkpt lat="50.64774" lon="3.36081">
        <ele>23.987261</ele>
        <time>2020-06-22T11:57:52.586Z</time>
      </trkpt>
      <trkpt lat="50.6476" lon="3.36005">
        <ele>22.665485</ele>
        <time>2020-06-22T11:57:59.100Z</time>
      </trkpt>
      <trkpt lat="50.64757" lon="3.35996">
        <ele>22.507667</ele>
        <time>2020-06-22T11:57:59.782Z</time>
      </trkpt>
      <trkpt lat="50.64737" lon="3.35948">
        <ele>21.554535</ele>
        <time>2020-06-22T11:58:04.373Z</time>
      </trkpt>
      <trkpt lat="50.64673" lon="3.35799">
        <ele>18.692046</ele>
        <time>2020-06-22T11:58:19.175Z</time>
      </trkpt>
      <trkpt lat="50.64623" lon="3.35736">
        <ele>17.111022</ele>
        <time>2020-06-22T11:58:27.242Z</time>
      </trkpt>
      <trkpt lat="50.64582" lon="3.35649">
        <ele>15.607157</ele>
        <time>2020-06-22T11:58:35.921Z</time>
      </trkpt>
      <trkpt lat="50.64573" lon="3.3563">
        <ele>15.311669</ele>
        <time>2020-06-22T11:58:37.839Z</time>
      </trkpt>
      <trkpt lat="50.64571" lon="3.35606">
        <ele>15.011243</ele>
        <time>2020-06-22T11:58:39.766Z</time>
      </trkpt>
      <trkpt lat="50.64571" lon="3.35536">
        <ele>14.136876</ele>
        <time>2020-06-22T11:58:45.555Z</time>
      </trkpt>
      <trkpt lat="50.64571" lon="3.35532">
        <ele>14.088163</ele>
        <time>2020-06-22T11:58:45.858Z</time>
      </trkpt>
      <trkpt lat="50.64574" lon="3.35279">
        <ele>12.509298</ele>
        <time>2020-06-22T11:59:08.778Z</time>
      </trkpt>
      <trkpt lat="50.64564" lon="3.3513">
        <ele>12.388207</ele>
        <time>2020-06-22T11:59:28.774Z</time>
      </trkpt>
      <trkpt lat="50.64561" lon="3.35095">
        <ele>12.683586</ele>
        <time>2020-06-22T11:59:33.921Z</time>
      </trkpt>
      <trkpt lat="50.6455" lon="3.3499">
        <ele>13.579687</ele>
        <time>2020-06-22T11:59:50.044Z</time>
      </trkpt>
      <trkpt lat="50.64519" lon="3.34722">
        <ele>16.33874</ele>
        <time>2020-06-22T12:00:34.877Z</time>
      </trkpt>
      <trkpt lat="50.64507" lon="3.34606">
        <ele>17.70091</ele>
        <time>2020-06-22T12:00:54.916Z</time>
      </trkpt>
      <trkpt lat="50.64505" lon="3.34574">
        <ele>18.051261</ele>
        <time>2020-06-22T12:01:01.090Z</time>
      </trkpt>
      <trkpt lat="50.64452" lon="3.3457">
        <ele>18.911968</ele>
        <time>2020-06-22T12:01:15.535Z</time>
      </trkpt>
      <trkpt lat="50.6441" lon="3.34564">
        <ele>19.574033</ele>
        <time>2020-06-22T12:01:25.491Z</time>
      </trkpt>
      <trkpt lat="50.64404" lon="3.34565">
        <ele>19.668935</ele>
        <time>2020-06-22T12:01:26.857Z</time>
      </trkpt>
      <trkpt lat="50.64401" lon="3.3457">
        <ele>19.744062</ele>
        <time>2020-06-22T12:01:28.660Z</time>
      </trkpt>
      <trkpt lat="50.64392" lon="3.34612">
        <ele>20.18833</ele>
        <time>2020-06-22T12:01:34.889Z</time>
      </trkpt>
      <trkpt lat="50.64348" lon="3.34656">
        <ele>20.877252</ele>
        <time>2020-06-22T12:01:47.859Z</time>
      </trkpt>
      <trkpt lat="50.64342" lon="3.34659">
        <ele>20.91865</ele>
        <time>2020-06-22T12:01:49.868Z</time>
      </trkpt>
      <trkpt lat="50.64324" lon="3.34641">
        <ele>21.045921</ele>
        <time>2020-06-22T12:01:54.533Z</time>
      </trkpt>
      <trkpt lat="50.64317" lon="3.3463">
        <ele>21.103532</ele>
        <time>2020-06-22T12:01:56.915Z</time>
      </trkpt>
      <trkpt lat="50.64308" lon="3.34614">
        <ele>21.189252</ele>
        <time>2020-06-22T12:01:59.579Z</time>
      </trkpt>
      <trkpt lat="50.64302" lon="3.34604">
        <ele>21.237818</ele>
        <time>2020-06-22T12:02:01.204Z</time>
      </trkpt>
      <trkpt lat="50.64292" lon="3.34588">
        <ele>21.325825</ele>
        <time>2020-06-22T12:02:05.122Z</time>
      </trkpt>
      <trkpt lat="50.6429" lon="3.34586">
        <ele>21.340019</ele>
        <time>2020-06-22T12:02:05.709Z</time>
      </trkpt>
      <trkpt lat="50.64258" lon="3.34537">
        <ele>21.610701</ele>
        <time>2020-06-22T12:02:13.768Z</time>
      </trkpt>
      <trkpt lat="50.64216" lon="3.34472">
        <ele>21.871039</ele>
        <time>2020-06-22T12:02:23.923Z</time>
      </trkpt>
      <trkpt lat="50.64193" lon="3.34437">
        <ele>21.855463</ele>
        <time>2020-06-22T12:02:29.400Z</time>
      </trkpt>
      <trkpt lat="50.6419" lon="3.34433">
        <ele>21.853626</ele>
        <time>2020-06-22T12:02:30.145Z</time>
      </trkpt>
      <trkpt lat="50.64161" lon="3.34392">
        <ele>21.834383</ele>
        <time>2020-06-22T12:02:37.514Z</time>
      </trkpt>
      <trkpt lat="50.6412" lon="3.34341">
        <ele>21.809068</ele>
        <time>2020-06-22T12:02:46.650Z</time>
      </trkpt>
      <trkpt lat="50.64044" lon="3.34245">
        <ele>21.451451</ele>
        <time>2020-06-22T12:03:03.136Z</time>
      </trkpt>
      <trkpt lat="50.63942" lon="3.34103">
        <ele>20.582407</ele>
        <time>2020-06-22T12:03:23.876Z</time>
      </trkpt>
      <trkpt lat="50.63919" lon="3.34071">
        <ele>20.242033</ele>
        <time>2020-06-22T12:03:28.957Z</time>
      </trkpt>
      <trkpt lat="50.63914" lon="3.34067">
        <ele>20.178473</ele>
        <time>2020-06-22T12:03:29.685Z</time>
      </trkpt>
      <trkpt lat="50.63888" lon="3.34044">
        <ele>19.844316</ele>
        <time>2020-06-22T12:03:34.104Z</time>
      </trkpt>
      <trkpt lat="50.63886" lon="3.34048">
        <ele>19.803555</ele>
        <time>2020-06-22T12:03:34.750Z</time>
      </trkpt>
      <trkpt lat="50.63868" lon="3.34058">
        <ele>19.591623</ele>
        <time>2020-06-22T12:03:38.467Z</time>
      </trkpt>
      <trkpt lat="50.6386" lon="3.34072">
        <ele>19.456425</ele>
        <time>2020-06-22T12:03:41.130Z</time>
      </trkpt>
      <trkpt lat="50.63853" lon="3.34097">
        <ele>19.262406</ele>
        <time>2020-06-22T12:03:44.568Z</time>
      </trkpt>
      <trkpt lat="50.63854" lon="3.34211">
        <ele>18.461975</ele>
        <time>2020-06-22T12:03:58.821Z</time>
      </trkpt>
      <trkpt lat="50.6385" lon="3.34221">
        <ele>18.383181</ele>
        <time>2020-06-22T12:04:00.096Z</time>
      </trkpt>
      <trkpt lat="50.63743" lon="3.34309">
        <ele>17.097493</ele>
        <time>2020-06-22T12:04:25.640Z</time>
      </trkpt>
      <trkpt lat="50.63708" lon="3.3435">
        <ele>16.77931</ele>
        <time>2020-06-22T12:04:34.661Z</time>
      </trkpt>
      <trkpt lat="50.63671" lon="3.34416">
        <ele>16.650845</ele>
        <time>2020-06-22T12:04:47.404Z</time>
      </trkpt>
      <trkpt lat="50.63666" lon="3.34431">
        <ele>16.625871</ele>
        <time>2020-06-22T12:04:49.967Z</time>
      </trkpt>
      <trkpt lat="50.63632" lon="3.34698">
        <ele>16.283093</ele>
        <time>2020-06-22T12:05:32.849Z</time>
      </trkpt>
      <trkpt lat="50.63577" lon="3.3483">
        <ele>16.12129</ele>
        <time>2020-06-22T12:05:55.670Z</time>
      </trkpt>
      <trkpt lat="50.63579" lon="3.34874">
        <ele>15.998749</ele>
        <time>2020-06-22T12:06:01.979Z</time>
      </trkpt>
      <trkpt lat="50.63582" lon="3.34881">
        <ele>15.973753</ele>
        <time>2020-06-22T12:06:03.103Z</time>
      </trkpt>
      <trkpt lat="50.63618" lon="3.34969">
        <ele>15.664797</ele>
        <time>2020-06-22T12:06:17.708Z</time>
      </trkpt>
      <trkpt lat="50.63644" lon="3.35032">
        <ele>15.441328</ele>
        <time>2020-06-22T12:06:28.281Z</time>
      </trkpt>
      <trkpt lat="50.63539" lon="3.3507">
        <ele>15.437029</ele>
        <time>2020-06-22T12:06:46.514Z</time>
      </trkpt>
      <trkpt lat="50.63443" lon="3.35119">
        <ele>15.662194</ele>
        <time>2020-06-22T12:07:06.795Z</time>
      </trkpt>
      <trkpt lat="50.63314" lon="3.35183">
        <ele>16.4788</ele>
        <time>2020-06-22T12:07:35.147Z</time>
      </trkpt>
      <trkpt lat="50.6316" lon="3.35301">
        <ele>17.314477</ele>
        <time>2020-06-22T12:08:10.465Z</time>
      </trkpt>
      <trkpt lat="50.63046" lon="3.35389">
        <ele>17.623175</ele>
        <time>2020-06-22T12:08:34.166Z</time>
      </trkpt>
      <trkpt lat="50.63043" lon="3.35388">
        <ele>17.625062</ele>
        <time>2020-06-22T12:08:34.520Z</time>
      </trkpt>
      <trkpt lat="50.63038" lon="3.35383">
        <ele>17.62951</ele>
        <time>2020-06-22T12:08:35.566Z</time>
      </trkpt>
      <trkpt lat="50.63026" lon="3.35372">
        <ele>17.638964</ele>
        <time>2020-06-22T12:08:38.220Z</time>
      </trkpt>
      <trkpt lat="50.63014" lon="3.35373">
        <ele>17.647332</ele>
        <time>2020-06-22T12:08:40.429Z</time>
      </trkpt>
      <trkpt lat="50.62972" lon="3.35453">
        <ele>17.69323</ele>
        <time>2020-06-22T12:08:52.225Z</time>
      </trkpt>
      <trkpt lat="50.62967" lon="3.35457">
        <ele>17.697262</ele>
        <time>2020-06-22T12:08:53.216Z</time>
      </trkpt>
      <trkpt lat="50.62956" lon="3.35466">
        <ele>17.731817</ele>
        <time>2020-06-22T12:08:56.009Z</time>
      </trkpt>
      <trkpt lat="50.62889" lon="3.35523">
        <ele>18.122795</ele>
        <time>2020-06-22T12:09:15.552Z</time>
      </trkpt>
      <trkpt lat="50.62721" lon="3.35617">
        <ele>19.077088</ele>
        <time>2020-06-22T12:10:05.982Z</time>
      </trkpt>
      <trkpt lat="50.62663" lon="3.3564">
        <ele>19.415169</ele>
        <time>2020-06-22T12:10:21.647Z</time>
      </trkpt>
      <trkpt lat="50.62652" lon="3.35646">
        <ele>19.481194</ele>
        <time>2020-06-22T12:10:24.651Z</time>
      </trkpt>
      <trkpt lat="50.62608" lon="3.35663">
        <ele>19.692302</ele>
        <time>2020-06-22T12:10:35.986Z</time>
      </trkpt>
      <trkpt lat="50.62589" lon="3.35671">
        <ele>19.7526</ele>
        <time>2020-06-22T12:10:40.769Z</time>
      </trkpt>
      <trkpt lat="50.62452" lon="3.35725">
        <ele>20.18231</ele>
        <time>2020-06-22T12:11:16.934Z</time>
      </trkpt>
      <trkpt lat="50.62436" lon="3.35726">
        <ele>20.28939</ele>
        <time>2020-06-22T12:11:21.428Z</time>
      </trkpt>
      <trkpt lat="50.62422" lon="3.35734">
        <ele>20.39042</ele>
        <time>2020-06-22T12:11:25.404Z</time>
      </trkpt>
      <trkpt lat="50.6238" lon="3.35769">
        <ele>20.720967</ele>
        <time>2020-06-22T12:11:35.474Z</time>
      </trkpt>
      <trkpt lat="50.62351" lon="3.35721">
        <ele>21.009901</ele>
        <time>2020-06-22T12:11:44.274Z</time>
      </trkpt>
      <trkpt lat="50.62327" lon="3.35674">
        <ele>21.27584</ele>
        <time>2020-06-22T12:11:52.924Z</time>
      </trkpt>
      <trkpt lat="50.62311" lon="3.35621">
        <ele>21.516378</ele>
        <time>2020-06-22T12:12:01.117Z</time>
      </trkpt>
      <trkpt lat="50.62305" lon="3.35604">
        <ele>21.586049</ele>
        <time>2020-06-22T12:12:03.831Z</time>
      </trkpt>
      <trkpt lat="50.62284" lon="3.35549">
        <ele>21.824319</ele>
        <time>2020-06-22T12:12:12.225Z</time>
      </trkpt>
      <trkpt lat="50.62279" lon="3.35537">
        <ele>21.875574</ele>
        <time>2020-06-22T12:12:13.988Z</time>
      </trkpt>
      <trkpt lat="50.62272" lon="3.3554">
        <ele>21.919368</ele>
        <time>2020-06-22T12:12:15.662Z</time>
      </trkpt>
      <trkpt lat="50.62271" lon="3.35541">
        <ele>21.924357</ele>
        <time>2020-06-22T12:12:15.849Z</time>
      </trkpt>
      <trkpt lat="50.62268" lon="3.35542">
        <ele>21.94384</ele>
        <time>2020-06-22T12:12:16.545Z</time>
      </trkpt>
      <trkpt lat="50.62265" lon="3.35543">
        <ele>21.964462</ele>
        <time>2020-06-22T12:12:17.518Z</time>
      </trkpt>
      <trkpt lat="50.622" lon="3.35523">
        <ele>22.346221</ele>
        <time>2020-06-22T12:12:30.600Z</time>
      </trkpt>
      <trkpt lat="50.62167" lon="3.35528">
        <ele>22.479301</ele>
        <time>2020-06-22T12:12:37.020Z</time>
      </trkpt>
      <trkpt lat="50.62146" lon="3.35539">
        <ele>22.486938</ele>
        <time>2020-06-22T12:12:41.364Z</time>
      </trkpt>
      <trkpt lat="50.62139" lon="3.35549">
        <ele>22.490127</ele>
        <time>2020-06-22T12:12:43.274Z</time>
      </trkpt>
      <trkpt lat="50.62129" lon="3.35564">
        <ele>22.49462</ele>
        <time>2020-06-22T12:12:46.902Z</time>
      </trkpt>
      <trkpt lat="50.62115" lon="3.35584">
        <ele>22.500942</ele>
        <time>2020-06-22T12:12:51.708Z</time>
      </trkpt>
      <trkpt lat="50.62105" lon="3.35594">
        <ele>22.504849</ele>
        <time>2020-06-22T12:12:54.701Z</time>
      </trkpt>
      <trkpt lat="50.62101" lon="3.35596">
        <ele>22.506265</ele>
        <time>2020-06-22T12:12:55.598Z</time>
      </trkpt>
      <trkpt lat="50.62083" lon="3.35603">
        <ele>22.51276</ele>
        <time>2020-06-22T12:13:00.462Z</time>
      </trkpt>
      <trkpt lat="50.6207" lon="3.35605">
        <ele>22.517123</ele>
        <time>2020-06-22T12:13:03.698Z</time>
      </trkpt>
      <trkpt lat="50.62049" lon="3.35646">
        <ele>22.528411</ele>
        <time>2020-06-22T12:13:11.856Z</time>
      </trkpt>
      <trkpt lat="50.61961" lon="3.35835">
        <ele>21.528737</ele>
        <time>2020-06-22T12:13:43.782Z</time>
      </trkpt>
      <trkpt lat="50.61948" lon="3.35846">
        <ele>21.4102</ele>
        <time>2020-06-22T12:13:46.825Z</time>
      </trkpt>
      <trkpt lat="50.61951" lon="3.35889">
        <ele>21.190802</ele>
        <time>2020-06-22T12:13:50.795Z</time>
      </trkpt>
      <trkpt lat="50.61951" lon="3.35936">
        <ele>20.950219</ele>
        <time>2020-06-22T12:13:55.218Z</time>
      </trkpt>
      <trkpt lat="50.61943" lon="3.35981">
        <ele>20.715896</ele>
        <time>2020-06-22T12:13:59.548Z</time>
      </trkpt>
      <trkpt lat="50.6191" lon="3.36068">
        <ele>20.206871</ele>
        <time>2020-06-22T12:14:08.971Z</time>
      </trkpt>
      <trkpt lat="50.61892" lon="3.36107">
        <ele>19.962871</ele>
        <time>2020-06-22T12:14:13.676Z</time>
      </trkpt>
      <trkpt lat="50.61875" lon="3.36147">
        <ele>19.719027</ele>
        <time>2020-06-22T12:14:18.638Z</time>
      </trkpt>
      <trkpt lat="50.61868" lon="3.36164">
        <ele>19.665783</ele>
        <time>2020-06-22T12:14:20.731Z</time>
      </trkpt>
      <trkpt lat="50.61841" lon="3.36231">
        <ele>19.702205</ele>
        <time>2020-06-22T12:14:29.182Z</time>
      </trkpt>
      <trkpt lat="50.61835" lon="3.36255">
        <ele>19.713975</ele>
        <time>2020-06-22T12:14:31.954Z</time>
      </trkpt>
      <trkpt lat="50.61822" lon="3.36268">
        <ele>19.725407</ele>
        <time>2020-06-22T12:14:34.836Z</time>
      </trkpt>
      <trkpt lat="50.61805" lon="3.36317">
        <ele>19.750863</ele>
        <time>2020-06-22T12:14:41.428Z</time>
      </trkpt>
      <trkpt lat="50.61789" lon="3.36358">
        <ele>19.773059</ele>
        <time>2020-06-22T12:14:47.428Z</time>
      </trkpt>
      <trkpt lat="50.61643" lon="3.367">
        <ele>21.125824</ele>
        <time>2020-06-22T12:15:41.931Z</time>
      </trkpt>
      <trkpt lat="50.61605" lon="3.36788">
        <ele>21.443335</ele>
        <time>2020-06-22T12:15:55.969Z</time>
      </trkpt>
      <trkpt lat="50.61505" lon="3.37019">
        <ele>21.458513</ele>
        <time>2020-06-22T12:16:28.165Z</time>
      </trkpt>
      <trkpt lat="50.61452" lon="3.37141">
        <ele>21.105106</ele>
        <time>2020-06-22T12:16:42.629Z</time>
      </trkpt>
      <trkpt lat="50.61439" lon="3.37172">
        <ele>20.949857</ele>
        <time>2020-06-22T12:16:46.217Z</time>
      </trkpt>
      <trkpt lat="50.61371" lon="3.37329">
        <ele>20.154178</ele>
        <time>2020-06-22T12:17:04.857Z</time>
      </trkpt>
      <trkpt lat="50.61358" lon="3.37357">
        <ele>20.165633</ele>
        <time>2020-06-22T12:17:08.328Z</time>
      </trkpt>
      <trkpt lat="50.61354" lon="3.37361">
        <ele>20.169065</ele>
        <time>2020-06-22T12:17:09.049Z</time>
      </trkpt>
      <trkpt lat="50.61353" lon="3.37367">
        <ele>20.17216</ele>
        <time>2020-06-22T12:17:09.689Z</time>
      </trkpt>
      <trkpt lat="50.61346" lon="3.37383">
        <ele>20.181602</ele>
        <time>2020-06-22T12:17:11.647Z</time>
      </trkpt>
      <trkpt lat="50.6134" lon="3.37399">
        <ele>20.190631</ele>
        <time>2020-06-22T12:17:13.536Z</time>
      </trkpt>
      <trkpt lat="50.61335" lon="3.37404">
        <ele>20.194767</ele>
        <time>2020-06-22T12:17:14.454Z</time>
      </trkpt>
      <trkpt lat="50.61334" lon="3.37413">
        <ele>20.199468</ele>
        <time>2020-06-22T12:17:15.505Z</time>
      </trkpt>
      <trkpt lat="50.61302" lon="3.37484">
        <ele>20.241461</ele>
        <time>2020-06-22T12:17:25.496Z</time>
      </trkpt>
      <trkpt lat="50.61291" lon="3.37511">
        <ele>20.256903</ele>
        <time>2020-06-22T12:17:29.641Z</time>
      </trkpt>
      <trkpt lat="50.61289" lon="3.37513">
        <ele>20.258709</ele>
        <time>2020-06-22T12:17:30.124Z</time>
      </trkpt>
      <trkpt lat="50.61288" lon="3.37515">
        <ele>20.260056</ele>
        <time>2020-06-22T12:17:30.510Z</time>
      </trkpt>
      <trkpt lat="50.61286" lon="3.37521">
        <ele>20.263165</ele>
        <time>2020-06-22T12:17:31.378Z</time>
      </trkpt>
      <trkpt lat="50.61286" lon="3.37522">
        <ele>20.264116</ele>
        <time>2020-06-22T12:17:31.619Z</time>
      </trkpt>
      <trkpt lat="50.61285" lon="3.37523">
        <ele>20.264669</ele>
        <time>2020-06-22T12:17:31.761Z</time>
      </trkpt>
      <trkpt lat="50.61285" lon="3.37525">
        <ele>20.265395</ele>
        <time>2020-06-22T12:17:31.955Z</time>
      </trkpt>
      <trkpt lat="50.6128" lon="3.37537">
        <ele>20.272655</ele>
        <time>2020-06-22T12:17:33.880Z</time>
      </trkpt>
      <trkpt lat="50.61278" lon="3.37542">
        <ele>20.27531</ele>
        <time>2020-06-22T12:17:34.655Z</time>
      </trkpt>
      <trkpt lat="50.61274" lon="3.3755">
        <ele>20.280508</ele>
        <time>2020-06-22T12:17:36.137Z</time>
      </trkpt>
      <trkpt lat="50.61271" lon="3.37553">
        <ele>20.282984</ele>
        <time>2020-06-22T12:17:36.870Z</time>
      </trkpt>
      <trkpt lat="50.61266" lon="3.37564">
        <ele>20.334746</ele>
        <time>2020-06-22T12:17:38.699Z</time>
      </trkpt>
      <trkpt lat="50.61264" lon="3.37575">
        <ele>20.434306</ele>
        <time>2020-06-22T12:17:40.362Z</time>
      </trkpt>
      <trkpt lat="50.61235" lon="3.37642">
        <ele>21.077391</ele>
        <time>2020-06-22T12:17:51.771Z</time>
      </trkpt>
      <trkpt lat="50.61228" lon="3.37652">
        <ele>21.195517</ele>
        <time>2020-06-22T12:17:53.850Z</time>
      </trkpt>
      <trkpt lat="50.61225" lon="3.3766">
        <ele>21.2716</ele>
        <time>2020-06-22T12:17:55.203Z</time>
      </trkpt>
      <trkpt lat="50.61221" lon="3.37669">
        <ele>21.360491</ele>
        <time>2020-06-22T12:17:56.771Z</time>
      </trkpt>
      <trkpt lat="50.61219" lon="3.37676">
        <ele>21.416527</ele>
        <time>2020-06-22T12:17:57.755Z</time>
      </trkpt>
      <trkpt lat="50.61217" lon="3.37684">
        <ele>21.482597</ele>
        <time>2020-06-22T12:17:59.442Z</time>
      </trkpt>
      <trkpt lat="50.61206" lon="3.37707">
        <ele>21.714432</ele>
        <time>2020-06-22T12:18:03.651Z</time>
      </trkpt>
      <trkpt lat="50.61184" lon="3.37762">
        <ele>22.231336</ele>
        <time>2020-06-22T12:18:14.029Z</time>
      </trkpt>
      <trkpt lat="50.61178" lon="3.37767">
        <ele>22.309871</ele>
        <time>2020-06-22T12:18:15.549Z</time>
      </trkpt>
      <trkpt lat="50.61175" lon="3.3778">
        <ele>22.420269</ele>
        <time>2020-06-22T12:18:18.270Z</time>
      </trkpt>
      <trkpt lat="50.61174" lon="3.37786">
        <ele>22.468718</ele>
        <time>2020-06-22T12:18:19.204Z</time>
      </trkpt>
      <trkpt lat="50.61169" lon="3.37801">
        <ele>22.647231</ele>
        <time>2020-06-22T12:18:22.046Z</time>
      </trkpt>
      <trkpt lat="50.61157" lon="3.37793">
        <ele>22.89909</ele>
        <time>2020-06-22T12:18:25.921Z</time>
      </trkpt>
      <trkpt lat="50.61154" lon="3.3779">
        <ele>22.983043</ele>
        <time>2020-06-22T12:18:27.479Z</time>
      </trkpt>
      <trkpt lat="50.61042" lon="3.37716">
        <ele>25.448241</ele>
        <time>2020-06-22T12:19:00.643Z</time>
      </trkpt>
      <trkpt lat="50.61019" lon="3.37707">
        <ele>25.927727</ele>
        <time>2020-06-22T12:19:07.498Z</time>
      </trkpt>
      <trkpt lat="50.60981" lon="3.37707">
        <ele>26.752265</ele>
        <time>2020-06-22T12:19:18.325Z</time>
      </trkpt>
      <trkpt lat="50.60968" lon="3.3771">
        <ele>27.026062</ele>
        <time>2020-06-22T12:19:22.172Z</time>
      </trkpt>
      <trkpt lat="50.60961" lon="3.37712">
        <ele>27.193507</ele>
        <time>2020-06-22T12:19:24.172Z</time>
      </trkpt>
      <trkpt lat="50.60937" lon="3.37721">
        <ele>27.742901</ele>
        <time>2020-06-22T12:19:31.582Z</time>
      </trkpt>
      <trkpt lat="50.60893" lon="3.37753">
        <ele>28.825542</ele>
        <time>2020-06-22T12:19:45.536Z</time>
      </trkpt>
      <trkpt lat="50.60817" lon="3.3782">
        <ele>30.532371</ele>
        <time>2020-06-22T12:20:10.348Z</time>
      </trkpt>
      <trkpt lat="50.60812" lon="3.37824">
        <ele>30.60939</ele>
        <time>2020-06-22T12:20:11.912Z</time>
      </trkpt>
      <trkpt lat="50.60714" lon="3.37912">
        <ele>32.10959</ele>
        <time>2020-06-22T12:20:38.490Z</time>
      </trkpt>
      <trkpt lat="50.60653" lon="3.37966">
        <ele>33.040259</ele>
        <time>2020-06-22T12:20:53.759Z</time>
      </trkpt>
      <trkpt lat="50.60632" lon="3.37985">
        <ele>33.367952</ele>
        <time>2020-06-22T12:20:58.990Z</time>
      </trkpt>
      <trkpt lat="50.60636" lon="3.38002">
        <ele>33.525557</ele>
        <time>2020-06-22T12:21:01.735Z</time>
      </trkpt>
      <trkpt lat="50.60614" lon="3.38026">
        <ele>33.89316</ele>
        <time>2020-06-22T12:21:07.737Z</time>
      </trkpt>
      <trkpt lat="50.60309" lon="3.38353">
        <ele>40.411783</ele>
        <time>2020-06-22T12:22:45.589Z</time>
      </trkpt>
      <trkpt lat="50.60296" lon="3.38368">
        <ele>40.742714</ele>
        <time>2020-06-22T12:22:50.501Z</time>
      </trkpt>
      <trkpt lat="50.60286" lon="3.38379">
        <ele>40.98467</ele>
        <time>2020-06-22T12:22:53.778Z</time>
      </trkpt>
      <trkpt lat="50.60273" lon="3.38402">
        <ele>41.376055</ele>
        <time>2020-06-22T12:22:59.397Z</time>
      </trkpt>
      <trkpt lat="50.60265" lon="3.38411">
        <ele>41.576433</ele>
        <time>2020-06-22T12:23:02.350Z</time>
      </trkpt>
      <trkpt lat="50.60248" lon="3.38428">
        <ele>41.974804</ele>
        <time>2020-06-22T12:23:07.997Z</time>
      </trkpt>
      <trkpt lat="50.60242" lon="3.3842">
        <ele>42.109434</ele>
        <time>2020-06-22T12:23:10.224Z</time>
      </trkpt>
      <trkpt lat="50.60235" lon="3.38412">
        <ele>42.270838</ele>
        <time>2020-06-22T12:23:12.836Z</time>
      </trkpt>
      <trkpt lat="50.60218" lon="3.38427">
        <ele>42.611404</ele>
        <time>2020-06-22T12:23:18.194Z</time>
      </trkpt>
      <trkpt lat="50.60167" lon="3.38471">
        <ele>43.635204</ele>
        <time>2020-06-22T12:23:34.690Z</time>
      </trkpt>
      <trkpt lat="50.60139" lon="3.38497">
        <ele>44.217683</ele>
        <time>2020-06-22T12:23:43.177Z</time>
      </trkpt>
      <trkpt lat="50.60089" lon="3.38568">
        <ele>45.251753</ele>
        <time>2020-06-22T12:23:58.747Z</time>
      </trkpt>
      <trkpt lat="50.60081" lon="3.38578">
        <ele>45.333014</ele>
        <time>2020-06-22T12:24:00.778Z</time>
      </trkpt>
      <trkpt lat="50.60081" lon="3.38593">
        <ele>45.411446</ele>
        <time>2020-06-22T12:24:03.019Z</time>
      </trkpt>
      <trkpt lat="50.6008" lon="3.38607">
        <ele>45.485445</ele>
        <time>2020-06-22T12:24:04.977Z</time>
      </trkpt>
      <trkpt lat="50.60073" lon="3.38628">
        <ele>45.612483</ele>
        <time>2020-06-22T12:24:08.276Z</time>
      </trkpt>
      <trkpt lat="50.60029" lon="3.38759">
        <ele>46.398832</ele>
        <time>2020-06-22T12:24:29.253Z</time>
      </trkpt>
      <trkpt lat="50.60024" lon="3.38774">
        <ele>46.483821</ele>
        <time>2020-06-22T12:24:31.344Z</time>
      </trkpt>
      <trkpt lat="50.60022" lon="3.38791">
        <ele>46.576355</ele>
        <time>2020-06-22T12:24:33.673Z</time>
      </trkpt>
      <trkpt lat="50.59902" lon="3.38805">
        <ele>46.614525</ele>
        <time>2020-06-22T12:24:56.497Z</time>
      </trkpt>
      <trkpt lat="50.59773" lon="3.38818">
        <ele>45.615721</ele>
        <time>2020-06-22T12:25:16.987Z</time>
      </trkpt>
      <trkpt lat="50.59678" lon="3.38833">
        <ele>44.180288</ele>
        <time>2020-06-22T12:25:29.510Z</time>
      </trkpt>
      <trkpt lat="50.59665" lon="3.38831">
        <ele>43.983783</ele>
        <time>2020-06-22T12:25:31.257Z</time>
      </trkpt>
      <trkpt lat="50.5965" lon="3.38829">
        <ele>43.68275</ele>
        <time>2020-06-22T12:25:33.078Z</time>
      </trkpt>
      <trkpt lat="50.59629" lon="3.38815">
        <ele>43.146504</ele>
        <time>2020-06-22T12:25:36.058Z</time>
      </trkpt>
      <trkpt lat="50.59606" lon="3.38777">
        <ele>42.3634</ele>
        <time>2020-06-22T12:25:40.325Z</time>
      </trkpt>
      <trkpt lat="50.59592" lon="3.38749">
        <ele>41.827657</ele>
        <time>2020-06-22T12:25:43.194Z</time>
      </trkpt>
      <trkpt lat="50.5959" lon="3.38745">
        <ele>41.754486</ele>
        <time>2020-06-22T12:25:43.612Z</time>
      </trkpt>
      <trkpt lat="50.59572" lon="3.38708">
        <ele>41.050846</ele>
        <time>2020-06-22T12:25:47.435Z</time>
      </trkpt>
      <trkpt lat="50.5948" lon="3.38826">
        <ele>38.222297</ele>
        <time>2020-06-22T12:26:02.757Z</time>
      </trkpt>
      <trkpt lat="50.59451" lon="3.38861">
        <ele>37.333006</ele>
        <time>2020-06-22T12:26:07.461Z</time>
      </trkpt>
      <trkpt lat="50.59418" lon="3.38902">
        <ele>36.315898</ele>
        <time>2020-06-22T12:26:12.792Z</time>
      </trkpt>
      <trkpt lat="50.59405" lon="3.38917">
        <ele>35.914966</ele>
        <time>2020-06-22T12:26:14.878Z</time>
      </trkpt>
      <trkpt lat="50.59389" lon="3.38926">
        <ele>35.513718</ele>
        <time>2020-06-22T12:26:16.938Z</time>
      </trkpt>
      <trkpt lat="50.59362" lon="3.38944">
        <ele>34.723473</ele>
        <time>2020-06-22T12:26:20.594Z</time>
      </trkpt>
      <trkpt lat="50.59229" lon="3.39027">
        <ele>30.708591</ele>
        <time>2020-06-22T12:26:38.335Z</time>
      </trkpt>
      <trkpt lat="50.59092" lon="3.39122">
        <ele>27.914936</ele>
        <time>2020-06-22T12:26:57.650Z</time>
      </trkpt>
      <trkpt lat="50.58909" lon="3.39304">
        <ele>26.817275</ele>
        <time>2020-06-22T12:27:32.780Z</time>
      </trkpt>
      <trkpt lat="50.58904" lon="3.39309">
        <ele>26.807134</ele>
        <time>2020-06-22T12:27:34.298Z</time>
      </trkpt>
      <trkpt lat="50.58887" lon="3.39326">
        <ele>27.083169</ele>
        <time>2020-06-22T12:27:38.716Z</time>
      </trkpt>
      <trkpt lat="50.58668" lon="3.3946">
        <ele>31.407045</ele>
        <time>2020-06-22T12:28:42.131Z</time>
      </trkpt>
      <trkpt lat="50.58533" lon="3.39506">
        <ele>34.791635</ele>
        <time>2020-06-22T12:29:24.035Z</time>
      </trkpt>
      <trkpt lat="50.58484" lon="3.39527">
        <ele>36.258037</ele>
        <time>2020-06-22T12:29:39.941Z</time>
      </trkpt>
      <trkpt lat="50.58438" lon="3.3954">
        <ele>37.593303</ele>
        <time>2020-06-22T12:29:54.372Z</time>
      </trkpt>
      <trkpt lat="50.58257" lon="3.39525">
        <ele>43.401673</ele>
        <time>2020-06-22T12:30:54.329Z</time>
      </trkpt>
      <trkpt lat="50.58256" lon="3.39525">
        <ele>43.465467</ele>
        <time>2020-06-22T12:30:55.781Z</time>
      </trkpt>
      <trkpt lat="50.57849" lon="3.39497">
        <ele>57.592336</ele>
        <time>2020-06-22T12:33:16.774Z</time>
      </trkpt>
      <trkpt lat="50.57822" lon="3.39482">
        <ele>58.331553</ele>
        <time>2020-06-22T12:33:26.359Z</time>
      </trkpt>
      <trkpt lat="50.57736" lon="3.39415">
        <ele>60.742764</ele>
        <time>2020-06-22T12:33:55.898Z</time>
      </trkpt>
      <trkpt lat="50.57696" lon="3.39395">
        <ele>61.778486</ele>
        <time>2020-06-22T12:34:07.405Z</time>
      </trkpt>
      <trkpt lat="50.57647" lon="3.39385">
        <ele>62.349922</ele>
        <time>2020-06-22T12:34:20.075Z</time>
      </trkpt>
      <trkpt lat="50.57541" lon="3.39409">
        <ele>62.962596</ele>
        <time>2020-06-22T12:34:41.826Z</time>
      </trkpt>
      <trkpt lat="50.57506" lon="3.39426">
        <ele>63.174195</ele>
        <time>2020-06-22T12:34:48.006Z</time>
      </trkpt>
      <trkpt lat="50.57486" lon="3.39435">
        <ele>63.030049</ele>
        <time>2020-06-22T12:34:51.196Z</time>
      </trkpt>
      <trkpt lat="50.57308" lon="3.39461">
        <ele>61.611225</ele>
        <time>2020-06-22T12:35:17.614Z</time>
      </trkpt>
      <trkpt lat="50.57273" lon="3.39465">
        <ele>61.337078</ele>
        <time>2020-06-22T12:35:22.912Z</time>
      </trkpt>
      <trkpt lat="50.57273" lon="3.39465">
        <ele>61.337078</ele>
        <time>2020-06-22T12:35:22.956Z</time>
      </trkpt>
      <trkpt lat="50.57273" lon="3.39465">
        <ele>61.337078</ele>
        <time>2020-06-22T12:35:22.960Z</time>
      </trkpt>
      <trkpt lat="50.57268" lon="3.39464">
        <ele>61.296204</ele>
        <time>2020-06-22T12:35:23.722Z</time>
      </trkpt>
      <trkpt lat="50.57131" lon="3.39439">
        <ele>60.277959</ele>
        <time>2020-06-22T12:35:44.639Z</time>
      </trkpt>
      <trkpt lat="50.57021" lon="3.39385">
        <ele>59.677686</ele>
        <time>2020-06-22T12:36:03.197Z</time>
      </trkpt>
      <trkpt lat="50.56984" lon="3.39373">
        <ele>59.478242</ele>
        <time>2020-06-22T12:36:09.385Z</time>
      </trkpt>
      <trkpt lat="50.56864" lon="3.39359">
        <ele>58.642185</ele>
        <time>2020-06-22T12:36:28.157Z</time>
      </trkpt>
      <trkpt lat="50.56801" lon="3.39345">
        <ele>58.186867</ele>
        <time>2020-06-22T12:36:37.784Z</time>
      </trkpt>
      <trkpt lat="50.56771" lon="3.39336">
        <ele>57.837676</ele>
        <time>2020-06-22T12:36:42.229Z</time>
      </trkpt>
      <trkpt lat="50.56646" lon="3.39303">
        <ele>56.217539</ele>
        <time>2020-06-22T12:36:59.939Z</time>
      </trkpt>
      <trkpt lat="50.56572" lon="3.39286">
        <ele>55.552658</ele>
        <time>2020-06-22T12:37:10.601Z</time>
      </trkpt>
      <trkpt lat="50.56528" lon="3.39276">
        <ele>55.278252</ele>
        <time>2020-06-22T12:37:17.045Z</time>
      </trkpt>
      <trkpt lat="50.56405" lon="3.39732">
        <ele>54.583099</ele>
        <time>2020-06-22T12:38:32.234Z</time>
      </trkpt>
      <trkpt lat="50.564" lon="3.39778">
        <ele>54.594965</ele>
        <time>2020-06-22T12:38:39.876Z</time>
      </trkpt>
      <trkpt lat="50.56412" lon="3.40035">
        <ele>54.298633</ele>
        <time>2020-06-22T12:39:20.556Z</time>
      </trkpt>
      <trkpt lat="50.56434" lon="3.40535">
        <ele>51.31837</ele>
        <time>2020-06-22T12:40:27.706Z</time>
      </trkpt>
      <trkpt lat="50.56313" lon="3.40575">
        <ele>48.371348</ele>
        <time>2020-06-22T12:40:50.185Z</time>
      </trkpt>
      <trkpt lat="50.5625" lon="3.4059">
        <ele>46.770743</ele>
        <time>2020-06-22T12:41:01.319Z</time>
      </trkpt>
      <trkpt lat="50.56171" lon="3.40617">
        <ele>44.504651</ele>
        <time>2020-06-22T12:41:15.743Z</time>
      </trkpt>
      <trkpt lat="50.56024" lon="3.40673">
        <ele>40.658711</ele>
        <time>2020-06-22T12:41:43.358Z</time>
      </trkpt>
      <trkpt lat="50.56017" lon="3.40676">
        <ele>40.481141</ele>
        <time>2020-06-22T12:41:44.787Z</time>
      </trkpt>
      <trkpt lat="50.55968" lon="3.40696">
        <ele>39.318493</ele>
        <time>2020-06-22T12:41:54.100Z</time>
      </trkpt>
      <trkpt lat="50.55961" lon="3.40698">
        <ele>39.151013</ele>
        <time>2020-06-22T12:41:55.439Z</time>
      </trkpt>
      <trkpt lat="50.55926" lon="3.40715">
        <ele>38.301209</ele>
        <time>2020-06-22T12:42:02.311Z</time>
      </trkpt>
      <trkpt lat="50.55796" lon="3.40766">
        <ele>35.268749</ele>
        <time>2020-06-22T12:42:27.288Z</time>
      </trkpt>
      <trkpt lat="50.55504" lon="3.40862">
        <ele>28.390002</ele>
        <time>2020-06-22T12:43:21.730Z</time>
      </trkpt>
      <trkpt lat="50.55492" lon="3.40868">
        <ele>28.1723</ele>
        <time>2020-06-22T12:43:23.899Z</time>
      </trkpt>
      <trkpt lat="50.55459" lon="3.40859">
        <ele>27.556976</ele>
        <time>2020-06-22T12:43:30.434Z</time>
      </trkpt>
      <trkpt lat="50.55443" lon="3.40868">
        <ele>27.252591</ele>
        <time>2020-06-22T12:43:33.731Z</time>
      </trkpt>
      <trkpt lat="50.55329" lon="3.40904">
        <ele>26.393964</ele>
        <time>2020-06-22T12:43:58.661Z</time>
      </trkpt>
      <trkpt lat="50.55256" lon="3.40915">
        <ele>26.379804</ele>
        <time>2020-06-22T12:44:17.826Z</time>
      </trkpt>
      <trkpt lat="50.55128" lon="3.40966">
        <ele>26.907611</ele>
        <time>2020-06-22T12:44:54.243Z</time>
      </trkpt>
      <trkpt lat="50.54954" lon="3.41019">
        <ele>27.490627</ele>
        <time>2020-06-22T12:45:41.040Z</time>
      </trkpt>
      <trkpt lat="50.54933" lon="3.41026">
        <ele>27.515926</ele>
        <time>2020-06-22T12:45:46.435Z</time>
      </trkpt>
      <trkpt lat="50.54828" lon="3.4106">
        <ele>27.265284</ele>
        <time>2020-06-22T12:46:11.228Z</time>
      </trkpt>
      <trkpt lat="50.54794" lon="3.41076">
        <ele>26.985995</ele>
        <time>2020-06-22T12:46:18.932Z</time>
      </trkpt>
      <trkpt lat="50.54776" lon="3.41089">
        <ele>26.829334</ele>
        <time>2020-06-22T12:46:23.259Z</time>
      </trkpt>
      <trkpt lat="50.5476" lon="3.41105">
        <ele>26.679271</ele>
        <time>2020-06-22T12:46:27.175Z</time>
      </trkpt>
      <trkpt lat="50.54722" lon="3.41157">
        <ele>26.285469</ele>
        <time>2020-06-22T12:46:37.507Z</time>
      </trkpt>
      <trkpt lat="50.54707" lon="3.41187">
        <ele>26.026304</ele>
        <time>2020-06-22T12:46:42.349Z</time>
      </trkpt>
      <trkpt lat="50.5456" lon="3.4153">
        <ele>22.428692</ele>
        <time>2020-06-22T12:47:34.507Z</time>
      </trkpt>
      <trkpt lat="50.5453" lon="3.41694">
        <ele>21.216176</ele>
        <time>2020-06-22T12:47:57.177Z</time>
      </trkpt>
      <trkpt lat="50.54517" lon="3.41725">
        <ele>21.061415</ele>
        <time>2020-06-22T12:48:02.241Z</time>
      </trkpt>
      <trkpt lat="50.54448" lon="3.41892">
        <ele>20.225805</ele>
        <time>2020-06-22T12:48:30.291Z</time>
      </trkpt>
      <trkpt lat="50.54439" lon="3.41907">
        <ele>20.143989</ele>
        <time>2020-06-22T12:48:33.279Z</time>
      </trkpt>
      <trkpt lat="50.54417" lon="3.41925">
        <ele>20.012898</ele>
        <time>2020-06-22T12:48:38.707Z</time>
      </trkpt>
      <trkpt lat="50.54358" lon="3.41944">
        <ele>19.689221</ele>
        <time>2020-06-22T12:48:52.187Z</time>
      </trkpt>
      <trkpt lat="50.54334" lon="3.4196">
        <ele>19.549381</ele>
        <time>2020-06-22T12:48:58.026Z</time>
      </trkpt>
      <trkpt lat="50.5432" lon="3.41974">
        <ele>19.464341</ele>
        <time>2020-06-22T12:49:01.536Z</time>
      </trkpt>
      <trkpt lat="50.54311" lon="3.41984">
        <ele>19.401484</ele>
        <time>2020-06-22T12:49:04.132Z</time>
      </trkpt>
      <trkpt lat="50.54221" lon="3.42162">
        <ele>18.866545</ele>
        <time>2020-06-22T12:49:35.966Z</time>
      </trkpt>
      <trkpt lat="50.5421" lon="3.42175">
        <ele>18.822866</ele>
        <time>2020-06-22T12:49:39.095Z</time>
      </trkpt>
      <trkpt lat="50.54211" lon="3.42191">
        <ele>18.790071</ele>
        <time>2020-06-22T12:49:40.870Z</time>
      </trkpt>
      <trkpt lat="50.54162" lon="3.42227">
        <ele>18.667954</ele>
        <time>2020-06-22T12:49:54.305Z</time>
      </trkpt>
      <trkpt lat="50.54128" lon="3.42236">
        <ele>18.787471</ele>
        <time>2020-06-22T12:50:03.054Z</time>
      </trkpt>
      <trkpt lat="50.54079" lon="3.4223">
        <ele>18.95843</ele>
        <time>2020-06-22T12:50:15.432Z</time>
      </trkpt>
      <trkpt lat="50.54074" lon="3.4223">
        <ele>18.97365</ele>
        <time>2020-06-22T12:50:16.485Z</time>
      </trkpt>
      <trkpt lat="50.54068" lon="3.42229">
        <ele>18.994063</ele>
        <time>2020-06-22T12:50:18.167Z</time>
      </trkpt>
      <trkpt lat="50.54054" lon="3.42229">
        <ele>19.044781</ele>
        <time>2020-06-22T12:50:22.216Z</time>
      </trkpt>
      <trkpt lat="50.54024" lon="3.4224">
        <ele>19.149709</ele>
        <time>2020-06-22T12:50:30.313Z</time>
      </trkpt>
      <trkpt lat="50.53997" lon="3.42265">
        <ele>19.257401</ele>
        <time>2020-06-22T12:50:38.810Z</time>
      </trkpt>
      <trkpt lat="50.53985" lon="3.4228">
        <ele>19.350362</ele>
        <time>2020-06-22T12:50:43.185Z</time>
      </trkpt>
      <trkpt lat="50.5398" lon="3.423">
        <ele>19.434944</ele>
        <time>2020-06-22T12:50:46.786Z</time>
      </trkpt>
      <trkpt lat="50.53968" lon="3.42348">
        <ele>19.643633</ele>
        <time>2020-06-22T12:50:55.973Z</time>
      </trkpt>
      <trkpt lat="50.53965" lon="3.42346">
        <ele>19.666953</ele>
        <time>2020-06-22T12:50:56.922Z</time>
      </trkpt>
      <trkpt lat="50.53907" lon="3.42331">
        <ele>20.034986</ele>
        <time>2020-06-22T12:51:09.111Z</time>
      </trkpt>
      <trkpt lat="50.53826" lon="3.42315">
        <ele>20.567429</ele>
        <time>2020-06-22T12:51:25.634Z</time>
      </trkpt>
      <trkpt lat="50.53725" lon="3.42291">
        <ele>21.262872</ele>
        <time>2020-06-22T12:51:46.737Z</time>
      </trkpt>
      <trkpt lat="50.53576" lon="3.42263">
        <ele>22.753293</ele>
        <time>2020-06-22T12:52:19.703Z</time>
      </trkpt>
      <trkpt lat="50.53478" lon="3.42237">
        <ele>23.989814</ele>
        <time>2020-06-22T12:52:44.592Z</time>
      </trkpt>
      <trkpt lat="50.53342" lon="3.42208">
        <ele>26.320632</ele>
        <time>2020-06-22T12:53:21.137Z</time>
      </trkpt>
      <trkpt lat="50.53268" lon="3.42193">
        <ele>27.082562</ele>
        <time>2020-06-22T12:53:39.637Z</time>
      </trkpt>
      <trkpt lat="50.53265" lon="3.42192">
        <ele>27.101919</ele>
        <time>2020-06-22T12:53:40.341Z</time>
      </trkpt>
      <trkpt lat="50.53254" lon="3.42189">
        <ele>27.170226</ele>
        <time>2020-06-22T12:53:43.501Z</time>
      </trkpt>
      <trkpt lat="50.5289" lon="3.42111">
        <ele>28.319868</ele>
        <time>2020-06-22T12:55:16.024Z</time>
      </trkpt>
      <trkpt lat="50.52836" lon="3.42099">
        <ele>28.362969</ele>
        <time>2020-06-22T12:55:29.181Z</time>
      </trkpt>
      <trkpt lat="50.52752" lon="3.4208">
        <ele>28.410648</ele>
        <time>2020-06-22T12:55:49.963Z</time>
      </trkpt>
      <trkpt lat="50.52597" lon="3.42045">
        <ele>28.406261</ele>
        <time>2020-06-22T12:56:28.552Z</time>
      </trkpt>
      <trkpt lat="50.52521" lon="3.42029">
        <ele>28.076601</ele>
        <time>2020-06-22T12:56:45.929Z</time>
      </trkpt>
      <trkpt lat="50.52437" lon="3.42011">
        <ele>27.708226</ele>
        <time>2020-06-22T12:57:04.718Z</time>
      </trkpt>
      <trkpt lat="50.52365" lon="3.41989">
        <ele>27.029638</ele>
        <time>2020-06-22T12:57:20.529Z</time>
      </trkpt>
      <trkpt lat="50.52273" lon="3.41971">
        <ele>26.080298</ele>
        <time>2020-06-22T12:57:39.654Z</time>
      </trkpt>
      <trkpt lat="50.52246" lon="3.41966">
        <ele>25.800574</ele>
        <time>2020-06-22T12:57:45.176Z</time>
      </trkpt>
      <trkpt lat="50.52169" lon="3.4195">
        <ele>24.848327</ele>
        <time>2020-06-22T12:58:00.538Z</time>
      </trkpt>
      <trkpt lat="50.52105" lon="3.41935">
        <ele>24.056133</ele>
        <time>2020-06-22T12:58:13.714Z</time>
      </trkpt>
      <trkpt lat="50.52093" lon="3.41932">
        <ele>23.908437</ele>
        <time>2020-06-22T12:58:15.981Z</time>
      </trkpt>
      <trkpt lat="50.52079" lon="3.41929">
        <ele>23.737602</ele>
        <time>2020-06-22T12:58:18.959Z</time>
      </trkpt>
      <trkpt lat="50.52048" lon="3.41921">
        <ele>23.605982</ele>
        <time>2020-06-22T12:58:25.365Z</time>
      </trkpt>
      <trkpt lat="50.52017" lon="3.41913">
        <ele>23.59511</ele>
        <time>2020-06-22T12:58:32.404Z</time>
      </trkpt>
      <trkpt lat="50.51906" lon="3.41912">
        <ele>23.556483</ele>
        <time>2020-06-22T12:59:00.645Z</time>
      </trkpt>
      <trkpt lat="50.51886" lon="3.41916">
        <ele>23.584313</ele>
        <time>2020-06-22T12:59:05.944Z</time>
      </trkpt>
      <trkpt lat="50.5188" lon="3.41917">
        <ele>23.635397</ele>
        <time>2020-06-22T12:59:07.551Z</time>
      </trkpt>
      <trkpt lat="50.51872" lon="3.41918">
        <ele>23.706274</ele>
        <time>2020-06-22T12:59:10.157Z</time>
      </trkpt>
      <trkpt lat="50.51736" lon="3.41927">
        <ele>24.855862</ele>
        <time>2020-06-22T12:59:49.500Z</time>
      </trkpt>
      <trkpt lat="50.51727" lon="3.41926">
        <ele>24.934877</ele>
        <time>2020-06-22T12:59:52.421Z</time>
      </trkpt>
      <trkpt lat="50.51713" lon="3.41925">
        <ele>25.050406</ele>
        <time>2020-06-22T12:59:56.377Z</time>
      </trkpt>
      <trkpt lat="50.5151" lon="3.41926">
        <ele>25.477503</ele>
        <time>2020-06-22T13:00:49.980Z</time>
      </trkpt>
      <trkpt lat="50.51487" lon="3.41945">
        <ele>25.050948</ele>
        <time>2020-06-22T13:00:55.520Z</time>
      </trkpt>
      <trkpt lat="50.51481" lon="3.4195">
        <ele>24.951953</ele>
        <time>2020-06-22T13:00:56.674Z</time>
      </trkpt>
      <trkpt lat="50.51485" lon="3.41966">
        <ele>24.776013</ele>
        <time>2020-06-22T13:00:58.430Z</time>
      </trkpt>
      <trkpt lat="50.51492" lon="3.41986">
        <ele>24.540467</ele>
        <time>2020-06-22T13:01:00.555Z</time>
      </trkpt>
      <trkpt lat="50.51494" lon="3.41991">
        <ele>24.474919</ele>
        <time>2020-06-22T13:01:01.059Z</time>
      </trkpt>
      <trkpt lat="50.51499" lon="3.42004">
        <ele>24.321182</ele>
        <time>2020-06-22T13:01:02.281Z</time>
      </trkpt>
      <trkpt lat="50.51507" lon="3.42024">
        <ele>24.073235</ele>
        <time>2020-06-22T13:01:04.459Z</time>
      </trkpt>
      <trkpt lat="50.51521" lon="3.42059">
        <ele>23.654071</ele>
        <time>2020-06-22T13:01:07.704Z</time>
      </trkpt>
      <trkpt lat="50.51522" lon="3.42067">
        <ele>23.567783</ele>
        <time>2020-06-22T13:01:08.422Z</time>
      </trkpt>
      <trkpt lat="50.51524" lon="3.42076">
        <ele>23.474939</ele>
        <time>2020-06-22T13:01:09.187Z</time>
      </trkpt>
      <trkpt lat="50.51525" lon="3.42082">
        <ele>23.403402</ele>
        <time>2020-06-22T13:01:09.741Z</time>
      </trkpt>
      <trkpt lat="50.51524" lon="3.42085">
        <ele>23.374447</ele>
        <time>2020-06-22T13:01:09.951Z</time>
      </trkpt>
      <trkpt lat="50.51524" lon="3.42087">
        <ele>23.345766</ele>
        <time>2020-06-22T13:01:10.159Z</time>
      </trkpt>
      <trkpt lat="50.51524" lon="3.42091">
        <ele>23.306419</ele>
        <time>2020-06-22T13:01:10.443Z</time>
      </trkpt>
      <trkpt lat="50.51525" lon="3.42095">
        <ele>23.266966</ele>
        <time>2020-06-22T13:01:10.720Z</time>
      </trkpt>
      <trkpt lat="50.51526" lon="3.42098">
        <ele>23.22763</ele>
        <time>2020-06-22T13:01:11.001Z</time>
      </trkpt>
      <trkpt lat="50.51529" lon="3.421">
        <ele>23.179619</ele>
        <time>2020-06-22T13:01:11.373Z</time>
      </trkpt>
      <trkpt lat="50.51531" lon="3.42102">
        <ele>23.131084</ele>
        <time>2020-06-22T13:01:11.754Z</time>
      </trkpt>
      <trkpt lat="50.51537" lon="3.42114">
        <ele>22.974673</ele>
        <time>2020-06-22T13:01:12.992Z</time>
      </trkpt>
      <trkpt lat="50.51541" lon="3.42124">
        <ele>22.824148</ele>
        <time>2020-06-22T13:01:13.968Z</time>
      </trkpt>
      <trkpt lat="50.51546" lon="3.4214">
        <ele>22.479976</ele>
        <time>2020-06-22T13:01:15.302Z</time>
      </trkpt>
      <trkpt lat="50.51559" lon="3.42188">
        <ele>21.502507</ele>
        <time>2020-06-22T13:01:19.375Z</time>
      </trkpt>
      <trkpt lat="50.51577" lon="3.42252">
        <ele>20.178599</ele>
        <time>2020-06-22T13:01:24.791Z</time>
      </trkpt>
      <trkpt lat="50.51598" lon="3.42329">
        <ele>18.599651</ele>
        <time>2020-06-22T13:01:31.378Z</time>
      </trkpt>
      <trkpt lat="50.516" lon="3.4234">
        <ele>18.390418</ele>
        <time>2020-06-22T13:01:32.210Z</time>
      </trkpt>
      <trkpt lat="50.516" lon="3.42352">
        <ele>18.158448</ele>
        <time>2020-06-22T13:01:33.122Z</time>
      </trkpt>
      <trkpt lat="50.51591" lon="3.42429">
        <ele>17.205361</ele>
        <time>2020-06-22T13:01:39.543Z</time>
      </trkpt>
      <trkpt lat="50.5159" lon="3.42448">
        <ele>17.060527</ele>
        <time>2020-06-22T13:01:41.113Z</time>
      </trkpt>
      <trkpt lat="50.51587" lon="3.42484">
        <ele>16.781145</ele>
        <time>2020-06-22T13:01:44.291Z</time>
      </trkpt>
      <trkpt lat="50.5155" lon="3.42874">
        <ele>14.849119</ele>
        <time>2020-06-22T13:02:23.874Z</time>
      </trkpt>
      <trkpt lat="50.51527" lon="3.43125">
        <ele>14.664308</ele>
        <time>2020-06-22T13:02:51.980Z</time>
      </trkpt>
      <trkpt lat="50.51526" lon="3.43141">
        <ele>14.664012</ele>
        <time>2020-06-22T13:02:53.848Z</time>
      </trkpt>
      <trkpt lat="50.51526" lon="3.43216">
        <ele>14.662681</ele>
        <time>2020-06-22T13:03:02.927Z</time>
      </trkpt>
      <trkpt lat="50.51531" lon="3.43248">
        <ele>14.736723</ele>
        <time>2020-06-22T13:03:07.013Z</time>
      </trkpt>
      <trkpt lat="50.51537" lon="3.43274">
        <ele>14.820009</ele>
        <time>2020-06-22T13:03:10.356Z</time>
      </trkpt>
      <trkpt lat="50.51545" lon="3.43295">
        <ele>14.89282</ele>
        <time>2020-06-22T13:03:13.421Z</time>
      </trkpt>
      <trkpt lat="50.51551" lon="3.43317">
        <ele>14.966103</ele>
        <time>2020-06-22T13:03:16.307Z</time>
      </trkpt>
      <trkpt lat="50.51559" lon="3.4334">
        <ele>15.045141</ele>
        <time>2020-06-22T13:03:19.686Z</time>
      </trkpt>
      <trkpt lat="50.51572" lon="3.43377">
        <ele>15.171219</ele>
        <time>2020-06-22T13:03:24.828Z</time>
      </trkpt>
      <trkpt lat="50.51679" lon="3.43556">
        <ele>15.915989</ele>
        <time>2020-06-22T13:03:57.940Z</time>
      </trkpt>
      <trkpt lat="50.51691" lon="3.43575">
        <ele>16.001573</ele>
        <time>2020-06-22T13:04:01.496Z</time>
      </trkpt>
      <trkpt lat="50.51685" lon="3.43587">
        <ele>16.047679</ele>
        <time>2020-06-22T13:04:04.051Z</time>
      </trkpt>
      <trkpt lat="50.51595" lon="3.43711">
        <ele>16.274167</ele>
        <time>2020-06-22T13:04:34.099Z</time>
      </trkpt>
      <trkpt lat="50.51579" lon="3.4378">
        <ele>16.175456</ele>
        <time>2020-06-22T13:04:44.889Z</time>
      </trkpt>
      <trkpt lat="50.51578" lon="3.43822">
        <ele>16.119048</ele>
        <time>2020-06-22T13:04:50.941Z</time>
      </trkpt>
      <trkpt lat="50.51583" lon="3.43897">
        <ele>16.017508</ele>
        <time>2020-06-22T13:05:01.883Z</time>
      </trkpt>
      <trkpt lat="50.51595" lon="3.43999">
        <ele>15.927458</ele>
        <time>2020-06-22T13:05:16.902Z</time>
      </trkpt>
      <trkpt lat="50.51515" lon="3.44047">
        <ele>15.818084</ele>
        <time>2020-06-22T13:05:37.146Z</time>
      </trkpt>
      <trkpt lat="50.51492" lon="3.44065">
        <ele>15.785978</ele>
        <time>2020-06-22T13:05:43.228Z</time>
      </trkpt>
      <trkpt lat="50.5146" lon="3.44108">
        <ele>15.804054</ele>
        <time>2020-06-22T13:05:53.717Z</time>
      </trkpt>
      <trkpt lat="50.51388" lon="3.44241">
        <ele>15.923029</ele>
        <time>2020-06-22T13:06:21.967Z</time>
      </trkpt>
      <trkpt lat="50.5134" lon="3.44349">
        <ele>15.88179</ele>
        <time>2020-06-22T13:06:42.445Z</time>
      </trkpt>
      <trkpt lat="50.51322" lon="3.4435">
        <ele>15.848889</ele>
        <time>2020-06-22T13:06:45.506Z</time>
      </trkpt>
      <trkpt lat="50.5119" lon="3.44403">
        <ele>15.622077</ele>
        <time>2020-06-22T13:07:08.198Z</time>
      </trkpt>
      <trkpt lat="50.51187" lon="3.44406">
        <ele>15.61709</ele>
        <time>2020-06-22T13:07:08.854Z</time>
      </trkpt>
      <trkpt lat="50.51116" lon="3.44468">
        <ele>15.52439</ele>
        <time>2020-06-22T13:07:22.529Z</time>
      </trkpt>
      <trkpt lat="50.51095" lon="3.44486">
        <ele>15.49643</ele>
        <time>2020-06-22T13:07:26.618Z</time>
      </trkpt>
      <trkpt lat="50.50707" lon="3.44823">
        <ele>15.728572</ele>
        <time>2020-06-22T13:08:47.216Z</time>
      </trkpt>
      <trkpt lat="50.50673" lon="3.44871">
        <ele>15.780666</ele>
        <time>2020-06-22T13:08:55.591Z</time>
      </trkpt>
      <trkpt lat="50.50661" lon="3.44894">
        <ele>15.802801</ele>
        <time>2020-06-22T13:08:58.982Z</time>
      </trkpt>
      <trkpt lat="50.50652" lon="3.44916">
        <ele>15.82169</ele>
        <time>2020-06-22T13:09:02.172Z</time>
      </trkpt>
      <trkpt lat="50.50599" lon="3.45026">
        <ele>16.001587</ele>
        <time>2020-06-22T13:09:18.105Z</time>
      </trkpt>
      <trkpt lat="50.50551" lon="3.45111">
        <ele>16.345564</ele>
        <time>2020-06-22T13:09:32.221Z</time>
      </trkpt>
      <trkpt lat="50.50539" lon="3.45133">
        <ele>16.431424</ele>
        <time>2020-06-22T13:09:35.837Z</time>
      </trkpt>
      <trkpt lat="50.50531" lon="3.45152">
        <ele>16.501038</ele>
        <time>2020-06-22T13:09:39.154Z</time>
      </trkpt>
      <trkpt lat="50.50513" lon="3.45201">
        <ele>16.67131</ele>
        <time>2020-06-22T13:09:46.891Z</time>
      </trkpt>
      <trkpt lat="50.50477" lon="3.45312">
        <ele>17.12145</ele>
        <time>2020-06-22T13:10:04.049Z</time>
      </trkpt>
      <trkpt lat="50.50473" lon="3.45332">
        <ele>17.20309</ele>
        <time>2020-06-22T13:10:06.800Z</time>
      </trkpt>
      <trkpt lat="50.50471" lon="3.45343">
        <ele>17.243483</ele>
        <time>2020-06-22T13:10:08.370Z</time>
      </trkpt>
      <trkpt lat="50.50468" lon="3.45372">
        <ele>17.35526</ele>
        <time>2020-06-22T13:10:12.271Z</time>
      </trkpt>
      <trkpt lat="50.50458" lon="3.45443">
        <ele>17.630275</ele>
        <time>2020-06-22T13:10:21.559Z</time>
      </trkpt>
      <trkpt lat="50.50448" lon="3.4547">
        <ele>17.749478</ele>
        <time>2020-06-22T13:10:25.673Z</time>
      </trkpt>
      <trkpt lat="50.50444" lon="3.45482">
        <ele>17.800612</ele>
        <time>2020-06-22T13:10:27.504Z</time>
      </trkpt>
      <trkpt lat="50.50416" lon="3.45464">
        <ele>17.818005</ele>
        <time>2020-06-22T13:10:33.271Z</time>
      </trkpt>
      <trkpt lat="50.50407" lon="3.45459">
        <ele>17.818005</ele>
        <time>2020-06-22T13:10:35.133Z</time>
      </trkpt>
      <trkpt lat="50.50355" lon="3.45425">
        <ele>17.818005</ele>
        <time>2020-06-22T13:10:45.207Z</time>
      </trkpt>
      <trkpt lat="50.5035" lon="3.45446">
        <ele>17.818005</ele>
        <time>2020-06-22T13:10:48.671Z</time>
      </trkpt>
    </trkseg>
  </trk>
</gpx>